Time,TemperatureF,DewpointF,PressureIn,WindDirection,WindDirectionDegrees,WindSpeedMPH,WindSpeedGustMPH,Humidity,HourlyPrecipIn,Conditions,Clouds,dailyrainin,SoftwareType,DateUTC
2013-01-21 00:00:00,67.1,65.9,30.02,East,82,0.0,0.0,96,0.00,,,0.00,Wunderground v.1.15,2013-01-21 05:00:00,
2013-01-21 00:01:00,67.1,65.9,30.02,East,82,0.0,0.0,96,0.00,,,0.00,Wunderground v.1.15,2013-01-21 05:01:00,
2013-01-21 00:05:00,67.2,66.0,30.01,East,82,0.0,0.0,96,0.00,,,0.00,Wunderground v.1.15,2013-01-21 05:05:00,
2013-01-21 00:06:00,67.2,66.0,30.01,East,82,0.0,0.0,96,0.00,,,0.00,Wunderground v.1.15,2013-01-21 05:06:00,
2013-01-21 00:07:00,67.2,66.0,30.01,East,82,0.0,0.0,96,0.00,,,0.00,Wunderground v.1.15,2013-01-21 05:07:00,
2013-01-21 00:10:00,67.3,66.1,30.01,East,81,0.0,0.0,96,0.00,,,0.00,Wunderground v.1.15,2013-01-21 05:10:00,
2013-01-21 00:13:00,67.2,66.0,30.01,East,82,0.0,0.0,96,0.00,,,0.00,Wunderground v.1.15,2013-01-21 05:13:00,
2013-01-21 00:14:00,67.2,66.0,30.01,East,82,0.0,0.0,96,0.00,,,0.00,Wunderground v.1.15,2013-01-21 05:14:00,
2013-01-21 00:17:00,67.2,66.0,30.01,East,82,0.0,0.0,96,0.00,,,0.00,Wunderground v.1.15,2013-01-21 05:17:00,
2013-01-21 00:19:00,67.2,66.0,30.01,East,82,0.0,0.0,96,0.00,,,0.00,Wunderground v.1.15,2013-01-21 05:19:00,
2013-01-21 00:20:00,67.2,66.0,30.01,East,82,0.0,0.0,96,0.00,,,0.00,Wunderground v.1.15,2013-01-21 05:20:00,
2013-01-21 00:22:00,67.2,66.0,30.01,East,82,0.0,0.0,96,0.00,,,0.00,Wunderground v.1.15,2013-01-21 05:22:00,
2013-01-21 00:24:00,67.2,66.0,30.01,East,82,0.0,0.0,96,0.00,,,0.00,Wunderground v.1.15,2013-01-21 05:24:00,
2013-01-21 00:25:00,67.2,66.0,30.01,East,82,0.0,0.0,96,0.00,,,0.00,Wunderground v.1.15,2013-01-21 05:25:00,
2013-01-21 00:28:00,67.2,66.0,30.00,East,82,0.0,0.0,96,0.00,,,0.00,Wunderground v.1.15,2013-01-21 05:28:00,
2013-01-21 00:29:00,67.2,66.0,30.00,East,82,0.0,0.0,96,0.00,,,0.00,Wunderground v.1.15,2013-01-21 05:29:00,
2013-01-21 00:30:00,67.2,66.0,30.00,East,82,0.0,0.0,96,0.00,,,0.00,Wunderground v.1.15,2013-01-21 05:30:00,
2013-01-21 00:32:00,67.2,66.0,30.00,East,82,0.0,0.0,96,0.00,,,0.00,Wunderground v.1.15,2013-01-21 05:32:00,
2013-01-21 00:33:00,67.2,66.0,30.00,East,82,0.0,0.0,96,0.00,,,0.00,Wunderground v.1.15,2013-01-21 05:33:00,
2013-01-21 00:35:00,67.2,66.0,30.00,East,82,0.0,0.0,96,0.00,,,0.00,Wunderground v.1.15,2013-01-21 05:35:00,
2013-01-21 00:38:00,67.2,66.0,30.00,East,82,0.0,0.0,96,0.00,,,0.00,Wunderground v.1.15,2013-01-21 05:38:00,
2013-01-21 00:41:00,67.1,65.9,30.00,East,82,0.0,0.0,96,0.00,,,0.00,Wunderground v.1.15,2013-01-21 05:41:00,
2013-01-21 00:42:00,67.1,65.9,30.00,East,82,0.0,0.0,96,0.00,,,0.00,Wunderground v.1.15,2013-01-21 05:42:00,
2013-01-21 00:43:00,67.1,65.9,30.00,East,82,0.0,0.0,96,0.00,,,0.00,Wunderground v.1.15,2013-01-21 05:43:00,
2013-01-21 00:45:00,67.0,65.8,30.00,East,82,0.0,0.0,96,0.00,,,0.00,Wunderground v.1.15,2013-01-21 05:45:00,
2013-01-21 00:48:00,67.0,65.8,30.01,East,82,0.0,0.0,96,0.00,,,0.00,Wunderground v.1.15,2013-01-21 05:48:00,
2013-01-21 00:49:00,67.0,65.8,30.00,East,82,0.0,0.0,96,0.00,,,0.00,Wunderground v.1.15,2013-01-21 05:49:00,
2013-01-21 00:52:00,67.0,65.8,30.00,East,82,0.0,0.0,96,0.00,,,0.00,Wunderground v.1.15,2013-01-21 05:52:00,
2013-01-21 00:55:00,66.9,65.7,30.01,East,82,0.0,0.0,96,0.00,,,0.00,Wunderground v.1.15,2013-01-21 05:55:00,
2013-01-21 00:57:00,66.9,65.7,30.01,East,82,0.0,0.0,96,0.00,,,0.00,Wunderground v.1.15,2013-01-21 05:57:00,
2013-01-21 01:00:00,66.8,65.6,30.00,East,82,0.0,0.0,96,0.00,,,0.00,Wunderground v.1.15,2013-01-21 06:00:00,
2013-01-21 01:01:00,66.7,65.5,30.00,East,82,0.0,0.0,96,0.00,,,0.00,Wunderground v.1.15,2013-01-21 06:01:00,
2013-01-21 01:02:00,66.7,65.5,30.00,East,82,0.0,0.0,96,0.00,,,0.00,Wunderground v.1.15,2013-01-21 06:02:00,
2013-01-21 01:06:00,66.6,65.4,30.00,East,82,0.0,0.0,96,0.00,,,0.00,Wunderground v.1.15,2013-01-21 06:06:00,
2013-01-21 01:08:00,66.6,65.4,30.00,East,82,0.0,0.0,96,0.00,,,0.00,Wunderground v.1.15,2013-01-21 06:08:00,
2013-01-21 01:09:00,66.6,65.4,30.00,East,81,0.0,0.0,96,0.00,,,0.00,Wunderground v.1.15,2013-01-21 06:09:00,
2013-01-21 01:14:00,66.6,65.4,30.00,East,82,0.0,0.0,96,0.00,,,0.00,Wunderground v.1.15,2013-01-21 06:14:00,
2013-01-21 01:15:00,66.6,65.4,30.00,East,82,0.0,0.0,96,0.00,,,0.00,Wunderground v.1.15,2013-01-21 06:15:00,
2013-01-21 01:19:00,66.5,65.6,30.01,East,82,0.0,0.0,97,0.00,,,0.00,Wunderground v.1.15,2013-01-21 06:19:00,
2013-01-21 01:20:00,66.4,65.2,30.00,East,82,0.0,0.0,96,0.00,,,0.00,Wunderground v.1.15,2013-01-21 06:20:00,
2013-01-21 01:21:00,66.4,65.2,30.00,East,82,0.0,0.0,96,0.00,,,0.00,Wunderground v.1.15,2013-01-21 06:21:00,
2013-01-21 01:23:00,66.4,65.2,30.01,East,82,0.0,0.0,96,0.00,,,0.00,Wunderground v.1.15,2013-01-21 06:23:00,
2013-01-21 01:27:00,66.4,65.5,30.00,East,82,0.0,0.0,97,0.00,,,0.00,Wunderground v.1.15,2013-01-21 06:27:00,
2013-01-21 01:28:00,66.5,65.6,30.00,East,82,0.0,0.0,97,0.00,,,0.00,Wunderground v.1.15,2013-01-21 06:28:00,
2013-01-21 01:30:00,66.5,65.6,30.00,East,82,0.0,0.0,97,0.00,,,0.00,Wunderground v.1.15,2013-01-21 06:30:00,
2013-01-21 01:34:00,66.3,65.1,30.00,East,82,0.0,0.0,96,0.00,,,0.00,Wunderground v.1.15,2013-01-21 06:34:00,
2013-01-21 01:35:00,66.3,65.1,30.00,East,82,0.0,0.0,96,0.00,,,0.00,Wunderground v.1.15,2013-01-21 06:35:00,
2013-01-21 01:37:00,66.4,65.2,30.00,East,82,0.0,0.0,96,0.00,,,0.00,Wunderground v.1.15,2013-01-21 06:37:00,
2013-01-21 01:39:00,66.4,65.5,30.01,East,82,0.0,0.0,97,0.00,,,0.00,Wunderground v.1.15,2013-01-21 06:39:00,
2013-01-21 01:43:00,66.5,65.6,30.01,East,82,0.0,0.0,97,0.00,,,0.00,Wunderground v.1.15,2013-01-21 06:43:00,
2013-01-21 01:44:00,66.5,65.6,30.01,East,82,0.0,0.0,97,0.00,,,0.00,Wunderground v.1.15,2013-01-21 06:44:00,
2013-01-21 01:46:00,66.5,65.6,30.00,East,82,0.0,0.0,97,0.00,,,0.00,Wunderground v.1.15,2013-01-21 06:46:00,
2013-01-21 01:47:00,66.5,65.6,30.00,East,82,0.0,0.0,97,0.00,,,0.00,Wunderground v.1.15,2013-01-21 06:47:00,
2013-01-21 01:49:00,66.6,65.7,30.00,East,82,0.0,0.0,97,0.00,,,0.00,Wunderground v.1.15,2013-01-21 06:49:00,
2013-01-21 01:51:00,66.7,65.8,30.00,East,82,0.0,0.0,97,0.00,,,0.00,Wunderground v.1.15,2013-01-21 06:51:00,
2013-01-21 01:52:00,66.7,65.8,30.00,East,82,0.0,0.0,97,0.00,,,0.00,Wunderground v.1.15,2013-01-21 06:52:00,
2013-01-21 01:55:00,66.8,65.9,30.00,East,81,0.0,0.0,97,0.00,,,0.00,Wunderground v.1.15,2013-01-21 06:55:00,
2013-01-21 01:56:00,66.8,65.9,30.00,East,82,0.0,0.0,97,0.00,,,0.00,Wunderground v.1.15,2013-01-21 06:56:00,
2013-01-21 01:57:00,66.8,65.9,30.00,East,82,0.0,0.0,97,0.00,,,0.00,Wunderground v.1.15,2013-01-21 06:57:00,
2013-01-21 01:58:00,66.7,65.8,30.00,East,82,0.0,0.0,97,0.00,,,0.00,Wunderground v.1.15,2013-01-21 06:58:00,
2013-01-21 02:00:00,66.7,65.8,30.00,East,82,0.0,0.0,97,0.00,,,0.00,Wunderground v.1.15,2013-01-21 07:00:00,
2013-01-21 02:01:00,66.6,65.7,30.00,East,82,0.0,0.0,97,0.00,,,0.00,Wunderground v.1.15,2013-01-21 07:01:00,
2013-01-21 02:02:00,66.6,65.7,30.00,East,82,0.0,0.0,97,0.00,,,0.00,Wunderground v.1.15,2013-01-21 07:02:00,
2013-01-21 02:03:00,66.6,65.7,30.00,East,82,0.0,0.0,97,0.00,,,0.00,Wunderground v.1.15,2013-01-21 07:03:00,
2013-01-21 02:06:00,66.7,65.8,30.00,East,82,0.0,0.0,97,0.00,,,0.00,Wunderground v.1.15,2013-01-21 07:06:00,
2013-01-21 02:08:00,66.6,65.7,30.00,East,82,0.0,0.0,97,0.00,,,0.00,Wunderground v.1.15,2013-01-21 07:08:00,
2013-01-21 02:09:00,66.6,65.7,30.00,East,82,0.0,0.0,97,0.00,,,0.00,Wunderground v.1.15,2013-01-21 07:09:00,
2013-01-21 02:11:00,66.7,65.8,30.00,East,82,0.0,0.0,97,0.00,,,0.00,Wunderground v.1.15,2013-01-21 07:11:00,
2013-01-21 02:13:00,66.7,65.8,30.00,East,82,0.0,0.0,97,0.00,,,0.00,Wunderground v.1.15,2013-01-21 07:13:00,
2013-01-21 02:14:00,66.7,65.8,30.00,East,82,0.0,0.0,97,0.00,,,0.00,Wunderground v.1.15,2013-01-21 07:14:00,
2013-01-21 02:18:00,66.8,65.9,30.00,East,82,0.0,0.0,97,0.00,,,0.00,Wunderground v.1.15,2013-01-21 07:18:00,
2013-01-21 02:19:00,67.0,66.1,30.00,East,82,0.0,0.0,97,0.00,,,0.00,Wunderground v.1.15,2013-01-21 07:19:00,
2013-01-21 02:20:00,67.0,66.1,30.00,East,82,0.0,0.0,97,0.00,,,0.00,Wunderground v.1.15,2013-01-21 07:20:00,
2013-01-21 02:23:00,67.0,66.1,29.99,East,82,0.0,0.0,97,0.00,,,0.00,Wunderground v.1.15,2013-01-21 07:23:00,
2013-01-21 02:24:00,67.1,66.2,29.99,East,82,0.0,0.0,97,0.00,,,0.00,Wunderground v.1.15,2013-01-21 07:24:00,
2013-01-21 02:25:00,67.1,66.2,29.99,East,82,0.0,0.0,97,0.00,,,0.00,Wunderground v.1.15,2013-01-21 07:25:00,
2013-01-21 02:28:00,67.1,66.2,29.99,East,82,0.0,0.0,97,0.00,,,0.00,Wunderground v.1.15,2013-01-21 07:28:00,
2013-01-21 02:30:00,67.1,66.2,29.98,East,82,0.0,0.0,97,0.00,,,0.00,Wunderground v.1.15,2013-01-21 07:30:00,
2013-01-21 02:31:00,67.1,66.2,29.98,East,81,0.0,0.0,97,0.00,,,0.00,Wunderground v.1.15,2013-01-21 07:31:00,
2013-01-21 02:33:00,67.1,66.2,29.99,East,82,0.0,0.0,97,0.00,,,0.00,Wunderground v.1.15,2013-01-21 07:33:00,
2013-01-21 02:36:00,67.0,66.1,29.99,East,82,0.0,0.0,97,0.00,,,0.00,Wunderground v.1.15,2013-01-21 07:36:00,
2013-01-21 02:37:00,67.0,66.1,29.99,East,82,0.0,0.0,97,0.00,,,0.00,Wunderground v.1.15,2013-01-21 07:37:00,
2013-01-21 02:39:00,67.0,66.1,29.99,East,82,0.0,0.0,97,0.00,,,0.00,Wunderground v.1.15,2013-01-21 07:39:00,
2013-01-21 02:41:00,67.1,66.2,29.99,East,82,0.0,0.0,97,0.00,,,0.00,Wunderground v.1.15,2013-01-21 07:41:00,
2013-01-21 02:42:00,67.2,66.3,29.98,East,82,0.0,0.0,97,0.00,,,0.00,Wunderground v.1.15,2013-01-21 07:42:00,
2013-01-21 02:43:00,67.2,66.3,29.98,East,82,0.0,0.0,97,0.00,,,0.00,Wunderground v.1.15,2013-01-21 07:43:00,
2013-01-21 02:44:00,67.3,66.4,29.98,East,82,0.0,0.0,97,0.00,,,0.00,Wunderground v.1.15,2013-01-21 07:44:00,
2013-01-21 02:47:00,67.2,66.3,29.98,East,82,0.0,0.0,97,0.00,,,0.00,Wunderground v.1.15,2013-01-21 07:47:00,
2013-01-21 02:48:00,67.1,66.2,29.98,East,82,0.0,0.0,97,0.00,,,0.00,Wunderground v.1.15,2013-01-21 07:48:00,
2013-01-21 02:49:00,67.0,66.1,29.98,East,82,0.0,0.0,97,0.00,,,0.00,Wunderground v.1.15,2013-01-21 07:49:00,
2013-01-21 02:53:00,66.9,66.0,29.98,East,82,0.0,0.0,97,0.00,,,0.00,Wunderground v.1.15,2013-01-21 07:53:00,
2013-01-21 02:54:00,66.8,65.9,29.98,East,82,0.0,0.0,97,0.00,,,0.00,Wunderground v.1.15,2013-01-21 07:54:00,
2013-01-21 02:58:00,66.7,65.8,29.98,East,82,0.0,0.0,97,0.00,,,0.00,Wunderground v.1.15,2013-01-21 07:58:00,
2013-01-21 02:59:00,66.7,65.8,29.98,East,82,0.0,0.0,97,0.00,,,0.00,Wunderground v.1.15,2013-01-21 07:59:00,
2013-01-21 03:02:00,66.6,65.7,29.98,East,82,0.0,0.0,97,0.00,,,0.00,Wunderground v.1.15,2013-01-21 08:02:00,
2013-01-21 03:03:00,66.6,65.7,29.98,East,82,0.0,0.0,97,0.00,,,0.00,Wunderground v.1.15,2013-01-21 08:03:00,
2013-01-21 03:05:00,66.6,65.7,29.98,East,82,0.0,0.0,97,0.00,,,0.00,Wunderground v.1.15,2013-01-21 08:05:00,
2013-01-21 03:06:00,66.6,65.7,29.98,East,82,0.0,0.0,97,0.00,,,0.00,Wunderground v.1.15,2013-01-21 08:06:00,
2013-01-21 03:08:00,66.5,65.6,29.99,East,82,0.0,0.0,97,0.00,,,0.00,Wunderground v.1.15,2013-01-21 08:08:00,
2013-01-21 03:10:00,66.5,65.6,29.99,East,82,0.0,0.0,97,0.00,,,0.00,Wunderground v.1.15,2013-01-21 08:10:00,
2013-01-21 03:11:00,66.5,65.6,29.99,East,82,0.0,0.0,97,0.00,,,0.00,Wunderground v.1.15,2013-01-21 08:11:00,
2013-01-21 03:13:00,66.4,65.5,29.99,East,82,0.0,0.0,97,0.00,,,0.00,Wunderground v.1.15,2013-01-21 08:13:00,
2013-01-21 03:14:00,66.4,65.5,29.99,East,82,0.0,0.0,97,0.00,,,0.00,Wunderground v.1.15,2013-01-21 08:14:00,
2013-01-21 03:16:00,66.4,65.5,29.99,East,82,0.0,0.0,97,0.00,,,0.00,Wunderground v.1.15,2013-01-21 08:16:00,
2013-01-21 03:19:00,66.4,65.5,29.99,East,82,0.0,0.0,97,0.00,,,0.00,Wunderground v.1.15,2013-01-21 08:19:00,
2013-01-21 03:20:00,66.4,65.5,29.99,East,82,0.0,0.0,97,0.00,,,0.00,Wunderground v.1.15,2013-01-21 08:20:00,
2013-01-21 03:21:00,66.4,65.5,29.99,East,82,0.0,0.0,97,0.00,,,0.00,Wunderground v.1.15,2013-01-21 08:21:00,
2013-01-21 03:22:00,66.4,65.5,29.99,East,82,0.0,0.0,97,0.00,,,0.00,Wunderground v.1.15,2013-01-21 08:22:00,
2013-01-21 03:24:00,66.4,65.5,29.99,East,82,0.0,0.0,97,0.00,,,0.00,Wunderground v.1.15,2013-01-21 08:24:00,
2013-01-21 03:26:00,66.4,65.5,29.99,East,82,0.0,0.0,97,0.00,,,0.00,Wunderground v.1.15,2013-01-21 08:26:00,
2013-01-21 03:28:00,66.4,65.5,29.99,East,82,0.0,0.0,97,0.00,,,0.00,Wunderground v.1.15,2013-01-21 08:28:00,
2013-01-21 03:30:00,66.4,65.5,29.99,East,82,0.0,0.0,97,0.00,,,0.00,Wunderground v.1.15,2013-01-21 08:30:00,
2013-01-21 03:31:00,66.4,65.5,29.99,East,82,0.0,0.0,97,0.00,,,0.00,Wunderground v.1.15,2013-01-21 08:31:00,
2013-01-21 03:33:00,66.3,65.4,29.99,East,82,0.0,0.0,97,0.00,,,0.00,Wunderground v.1.15,2013-01-21 08:33:00,
2013-01-21 03:35:00,66.1,65.2,29.99,East,82,0.0,0.0,97,0.00,,,0.00,Wunderground v.1.15,2013-01-21 08:35:00,
2013-01-21 03:37:00,66.1,65.2,29.99,East,82,0.0,0.0,97,0.00,,,0.00,Wunderground v.1.15,2013-01-21 08:37:00,
2013-01-21 03:39:00,66.1,65.2,29.99,East,82,0.0,0.0,97,0.00,,,0.00,Wunderground v.1.15,2013-01-21 08:39:00,
2013-01-21 03:40:00,66.1,65.2,29.99,East,82,0.0,0.0,97,0.00,,,0.00,Wunderground v.1.15,2013-01-21 08:40:00,
2013-01-21 03:42:00,66.1,65.2,29.99,East,82,0.0,0.0,97,0.00,,,0.00,Wunderground v.1.15,2013-01-21 08:42:00,
2013-01-21 03:44:00,66.1,65.2,29.99,East,82,0.0,0.0,97,0.00,,,0.00,Wunderground v.1.15,2013-01-21 08:44:00,
2013-01-21 03:46:00,66.1,65.2,29.99,East,82,0.0,0.0,97,0.00,,,0.00,Wunderground v.1.15,2013-01-21 08:46:00,
2013-01-21 03:47:00,66.2,65.3,29.99,East,82,0.0,0.0,97,0.00,,,0.00,Wunderground v.1.15,2013-01-21 08:47:00,
2013-01-21 03:48:00,66.2,65.3,29.99,East,82,0.0,0.0,97,0.00,,,0.00,Wunderground v.1.15,2013-01-21 08:48:00,
2013-01-21 03:50:00,66.2,65.3,29.99,East,82,0.0,0.0,97,0.00,,,0.00,Wunderground v.1.15,2013-01-21 08:50:00,
2013-01-21 03:51:00,66.3,65.4,29.99,East,82,0.0,0.0,97,0.00,,,0.00,Wunderground v.1.15,2013-01-21 08:51:00,
2013-01-21 03:53:00,66.3,65.4,29.99,East,82,0.0,0.0,97,0.00,,,0.00,Wunderground v.1.15,2013-01-21 08:53:00,
2013-01-21 03:55:00,66.4,65.5,29.99,East,82,0.0,0.0,97,0.00,,,0.00,Wunderground v.1.15,2013-01-21 08:55:00,
2013-01-21 03:57:00,66.4,65.5,29.98,East,82,0.0,0.0,97,0.00,,,0.00,Wunderground v.1.15,2013-01-21 08:57:00,
2013-01-21 03:58:00,66.4,65.5,29.98,East,82,0.0,0.0,97,0.00,,,0.00,Wunderground v.1.15,2013-01-21 08:58:00,
2013-01-21 03:59:00,66.4,65.5,29.98,East,82,0.0,0.0,97,0.00,,,0.00,Wunderground v.1.15,2013-01-21 08:59:00,
2013-01-21 04:00:00,66.4,65.5,29.98,East,82,0.0,0.0,97,0.00,,,0.00,Wunderground v.1.15,2013-01-21 09:00:00,
2013-01-21 04:02:00,66.4,65.5,29.98,East,82,0.0,0.0,97,0.00,,,0.00,Wunderground v.1.15,2013-01-21 09:02:00,
2013-01-21 04:03:00,66.3,65.4,29.99,East,82,0.0,0.0,97,0.00,,,0.00,Wunderground v.1.15,2013-01-21 09:03:00,
2013-01-21 04:05:00,66.4,65.5,29.99,East,82,0.0,0.0,97,0.00,,,0.00,Wunderground v.1.15,2013-01-21 09:05:00,
2013-01-21 04:06:00,66.4,65.5,29.99,East,82,0.0,0.0,97,0.00,,,0.00,Wunderground v.1.15,2013-01-21 09:06:00,
2013-01-21 04:07:00,66.4,65.5,29.99,East,82,0.0,0.0,97,0.00,,,0.00,Wunderground v.1.15,2013-01-21 09:07:00,
2013-01-21 04:09:00,66.5,65.6,29.99,East,82,0.0,0.0,97,0.00,,,0.00,Wunderground v.1.15,2013-01-21 09:09:00,
2013-01-21 04:10:00,66.5,65.6,29.99,East,82,0.0,0.0,97,0.00,,,0.00,Wunderground v.1.15,2013-01-21 09:10:00,
2013-01-21 04:11:00,66.5,65.6,29.99,East,82,0.0,0.0,97,0.00,,,0.00,Wunderground v.1.15,2013-01-21 09:11:00,
2013-01-21 04:12:00,66.4,65.5,29.98,East,82,0.0,0.0,97,0.00,,,0.00,Wunderground v.1.15,2013-01-21 09:12:00,
2013-01-21 04:15:00,66.3,65.4,29.98,East,82,0.0,0.0,97,0.00,,,0.00,Wunderground v.1.15,2013-01-21 09:15:00,
2013-01-21 04:16:00,66.3,65.4,29.98,East,82,0.0,0.0,97,0.00,,,0.00,Wunderground v.1.15,2013-01-21 09:16:00,
2013-01-21 04:17:00,66.3,65.4,29.98,East,82,0.0,0.0,97,0.00,,,0.00,Wunderground v.1.15,2013-01-21 09:17:00,
2013-01-21 04:20:00,66.2,65.3,29.98,East,82,0.0,0.0,97,0.00,,,0.00,Wunderground v.1.15,2013-01-21 09:20:00,
2013-01-21 04:21:00,66.2,65.3,29.98,East,82,0.0,0.0,97,0.00,,,0.00,Wunderground v.1.15,2013-01-21 09:21:00,
2013-01-21 04:22:00,66.2,65.3,29.98,East,82,0.0,0.0,97,0.00,,,0.00,Wunderground v.1.15,2013-01-21 09:22:00,
2013-01-21 04:25:00,66.1,65.2,29.98,East,81,0.0,0.0,97,0.00,,,0.00,Wunderground v.1.15,2013-01-21 09:25:00,
2013-01-21 04:26:00,66.1,65.2,29.98,East,82,0.0,0.0,97,0.00,,,0.00,Wunderground v.1.15,2013-01-21 09:26:00,
2013-01-21 04:28:00,66.1,65.2,29.98,East,82,0.0,0.0,97,0.00,,,0.00,Wunderground v.1.15,2013-01-21 09:28:00,
2013-01-21 04:30:00,66.1,65.2,29.98,East,82,0.0,0.0,97,0.00,,,0.00,Wunderground v.1.15,2013-01-21 09:30:00,
2013-01-21 04:31:00,66.1,65.2,29.98,East,82,0.0,0.0,97,0.00,,,0.00,Wunderground v.1.15,2013-01-21 09:31:00,
2013-01-21 04:32:00,66.1,65.2,29.98,East,82,0.0,0.0,97,0.00,,,0.00,Wunderground v.1.15,2013-01-21 09:32:00,
2013-01-21 04:33:00,66.1,65.2,29.98,East,81,0.0,0.0,97,0.00,,,0.00,Wunderground v.1.15,2013-01-21 09:33:00,
2013-01-21 04:35:00,66.1,65.2,29.98,East,81,0.0,0.0,97,0.00,,,0.00,Wunderground v.1.15,2013-01-21 09:35:00,
2013-01-21 04:37:00,66.1,65.2,29.98,East,82,0.0,0.0,97,0.00,,,0.00,Wunderground v.1.15,2013-01-21 09:37:00,
2013-01-21 04:39:00,66.1,65.2,29.98,East,82,0.0,0.0,97,0.00,,,0.00,Wunderground v.1.15,2013-01-21 09:39:00,
2013-01-21 04:41:00,66.0,65.1,29.98,East,82,0.0,0.0,97,0.00,,,0.00,Wunderground v.1.15,2013-01-21 09:41:00,
2013-01-21 04:42:00,66.0,65.1,29.98,East,82,0.0,0.0,97,0.00,,,0.00,Wunderground v.1.15,2013-01-21 09:42:00,
2013-01-21 04:44:00,66.0,65.1,29.98,East,82,0.0,0.0,97,0.00,,,0.00,Wunderground v.1.15,2013-01-21 09:44:00,
2013-01-21 04:47:00,66.1,65.2,29.98,East,82,0.0,0.0,97,0.00,,,0.00,Wunderground v.1.15,2013-01-21 09:47:00,
2013-01-21 04:48:00,66.1,65.2,29.97,East,82,0.0,0.0,97,0.00,,,0.00,Wunderground v.1.15,2013-01-21 09:48:00,
2013-01-21 04:50:00,66.1,65.2,29.97,East,82,0.0,0.0,97,0.00,,,0.00,Wunderground v.1.15,2013-01-21 09:50:00,
2013-01-21 04:52:00,66.1,65.2,29.97,East,82,0.0,0.0,97,0.00,,,0.00,Wunderground v.1.15,2013-01-21 09:52:00,
2013-01-21 04:54:00,66.1,65.2,29.98,East,82,0.0,0.0,97,0.00,,,0.00,Wunderground v.1.15,2013-01-21 09:54:00,
2013-01-21 04:55:00,66.1,65.2,29.97,East,82,0.0,0.0,97,0.00,,,0.00,Wunderground v.1.15,2013-01-21 09:55:00,
2013-01-21 04:57:00,66.1,65.2,29.97,East,81,0.0,0.0,97,0.00,,,0.00,Wunderground v.1.15,2013-01-21 09:57:00,
2013-01-21 04:58:00,66.2,65.3,29.97,East,82,0.0,0.0,97,0.00,,,0.00,Wunderground v.1.15,2013-01-21 09:58:00,
2013-01-21 05:01:00,66.1,65.2,29.97,East,82,0.0,0.0,97,0.00,,,0.00,Wunderground v.1.15,2013-01-21 10:01:00,
2013-01-21 05:02:00,66.0,65.1,29.97,East,82,0.0,0.0,97,0.00,,,0.00,Wunderground v.1.15,2013-01-21 10:02:00,
2013-01-21 05:03:00,66.0,65.1,29.97,East,82,0.0,0.0,97,0.00,,,0.00,Wunderground v.1.15,2013-01-21 10:03:00,
2013-01-21 05:07:00,66.0,65.1,29.97,East,82,0.0,0.0,97,0.00,,,0.00,Wunderground v.1.15,2013-01-21 10:07:00,
2013-01-21 05:08:00,66.0,65.1,29.97,East,81,0.0,0.0,97,0.00,,,0.00,Wunderground v.1.15,2013-01-21 10:08:00,
2013-01-21 05:10:00,66.0,65.1,29.97,East,82,0.0,0.0,97,0.00,,,0.00,Wunderground v.1.15,2013-01-21 10:10:00,
2013-01-21 05:13:00,66.0,65.1,29.97,East,82,0.0,0.0,97,0.00,,,0.00,Wunderground v.1.15,2013-01-21 10:13:00,
2013-01-21 05:14:00,66.1,65.2,29.97,East,82,0.0,0.0,97,0.00,,,0.00,Wunderground v.1.15,2013-01-21 10:14:00,
2013-01-21 05:15:00,66.1,65.2,29.97,East,82,0.0,0.0,97,0.00,,,0.00,Wunderground v.1.15,2013-01-21 10:15:00,
2013-01-21 05:18:00,66.1,65.2,29.97,East,82,0.0,0.0,97,0.00,,,0.00,Wunderground v.1.15,2013-01-21 10:18:00,
2013-01-21 05:19:00,66.1,65.2,29.97,East,82,0.0,0.0,97,0.00,,,0.00,Wunderground v.1.15,2013-01-21 10:19:00,
2013-01-21 05:21:00,66.1,65.2,29.97,East,81,0.0,0.0,97,0.00,,,0.00,Wunderground v.1.15,2013-01-21 10:21:00,
2013-01-21 05:24:00,66.2,65.3,29.97,East,82,0.0,0.0,97,0.00,,,0.00,Wunderground v.1.15,2013-01-21 10:24:00,
2013-01-21 05:27:00,66.1,65.2,29.97,East,82,0.0,0.0,97,0.00,,,0.00,Wunderground v.1.15,2013-01-21 10:27:00,
2013-01-21 05:29:00,66.1,65.2,29.97,East,82,0.0,0.0,97,0.00,,,0.00,Wunderground v.1.15,2013-01-21 10:29:00,
2013-01-21 05:30:00,66.1,65.2,29.97,East,82,0.0,0.0,97,0.00,,,0.00,Wunderground v.1.15,2013-01-21 10:30:00,
2013-01-21 05:32:00,66.1,65.5,29.97,East,82,0.0,0.0,98,0.00,,,0.00,Wunderground v.1.15,2013-01-21 10:32:00,
2013-01-21 05:34:00,66.1,65.5,29.97,East,82,0.0,0.0,98,0.00,,,0.00,Wunderground v.1.15,2013-01-21 10:34:00,
2013-01-21 05:35:00,66.1,65.5,29.97,East,82,0.0,0.0,98,0.00,,,0.00,Wunderground v.1.15,2013-01-21 10:35:00,
2013-01-21 05:38:00,66.2,65.6,29.97,East,82,0.0,0.0,98,0.00,,,0.00,Wunderground v.1.15,2013-01-21 10:38:00,
2013-01-21 05:39:00,66.2,65.3,29.97,East,82,0.0,0.0,97,0.00,,,0.00,Wunderground v.1.15,2013-01-21 10:39:00,
2013-01-21 05:40:00,66.3,65.4,29.97,East,81,0.0,0.0,97,0.00,,,0.00,Wunderground v.1.15,2013-01-21 10:40:00,
2013-01-21 05:43:00,66.3,65.4,29.98,East,82,0.0,0.0,97,0.00,,,0.00,Wunderground v.1.15,2013-01-21 10:43:00,
2013-01-21 05:45:00,66.3,65.4,29.98,East,82,0.0,0.0,97,0.00,,,0.00,Wunderground v.1.15,2013-01-21 10:45:00,
2013-01-21 05:46:00,66.3,65.4,29.98,East,82,0.0,0.0,97,0.00,,,0.00,Wunderground v.1.15,2013-01-21 10:46:00,
2013-01-21 05:47:00,66.3,65.4,29.98,East,82,0.0,0.0,97,0.00,,,0.00,Wunderground v.1.15,2013-01-21 10:47:00,
2013-01-21 05:49:00,66.1,65.5,29.98,East,82,0.0,0.0,98,0.00,,,0.00,Wunderground v.1.15,2013-01-21 10:49:00,
2013-01-21 05:50:00,66.1,65.5,29.98,East,82,0.0,0.0,98,0.00,,,0.00,Wunderground v.1.15,2013-01-21 10:50:00,
2013-01-21 05:51:00,66.0,65.4,29.98,East,82,0.0,0.0,98,0.00,,,0.00,Wunderground v.1.15,2013-01-21 10:51:00,
2013-01-21 05:52:00,65.8,64.9,29.98,East,82,0.0,0.0,97,0.00,,,0.00,Wunderground v.1.15,2013-01-21 10:52:00,
2013-01-21 05:55:00,65.4,64.5,29.98,East,82,0.0,0.0,97,0.00,,,0.00,Wunderground v.1.15,2013-01-21 10:55:00,
2013-01-21 05:56:00,65.3,64.4,29.98,East,82,0.0,0.0,97,0.00,,,0.00,Wunderground v.1.15,2013-01-21 10:56:00,
2013-01-21 05:57:00,65.2,64.3,29.98,East,82,0.0,0.0,97,0.00,,,0.00,Wunderground v.1.15,2013-01-21 10:57:00,
2013-01-21 06:01:00,65.0,64.1,29.98,East,82,0.0,0.0,97,0.00,,,0.00,Wunderground v.1.15,2013-01-21 11:01:00,
2013-01-21 06:02:00,65.0,64.1,29.98,East,82,0.0,0.0,97,0.00,,,0.00,Wunderground v.1.15,2013-01-21 11:02:00,
2013-01-21 06:03:00,65.0,64.1,29.99,East,82,0.0,0.0,97,0.00,,,0.00,Wunderground v.1.15,2013-01-21 11:03:00,
2013-01-21 06:07:00,64.9,64.0,29.99,East,82,0.0,0.0,97,0.00,,,0.00,Wunderground v.1.15,2013-01-21 11:07:00,
2013-01-21 06:08:00,64.8,63.9,29.99,East,82,0.0,0.0,97,0.00,,,0.00,Wunderground v.1.15,2013-01-21 11:08:00,
2013-01-21 06:12:00,64.8,63.9,29.98,East,82,0.0,0.0,97,0.00,,,0.00,Wunderground v.1.15,2013-01-21 11:12:00,
2013-01-21 06:13:00,64.8,63.9,29.99,East,82,0.0,0.0,97,0.00,,,0.00,Wunderground v.1.15,2013-01-21 11:13:00,
2013-01-21 06:14:00,64.8,63.9,29.98,East,82,0.0,0.0,97,0.00,,,0.00,Wunderground v.1.15,2013-01-21 11:14:00,
2013-01-21 06:17:00,64.9,64.0,29.99,East,82,0.0,0.0,97,0.00,,,0.00,Wunderground v.1.15,2013-01-21 11:17:00,
2013-01-21 06:18:00,64.9,64.0,29.98,East,82,0.0,0.0,97,0.00,,,0.00,Wunderground v.1.15,2013-01-21 11:18:00,
2013-01-21 06:20:00,64.9,64.0,29.99,East,82,0.0,0.0,97,0.00,,,0.00,Wunderground v.1.15,2013-01-21 11:20:00,
2013-01-21 06:22:00,65.0,64.1,29.99,East,82,0.0,0.0,97,0.00,,,0.00,Wunderground v.1.15,2013-01-21 11:22:00,
2013-01-21 06:23:00,65.0,64.1,29.99,East,82,0.0,0.0,97,0.00,,,0.00,Wunderground v.1.15,2013-01-21 11:23:00,
2013-01-21 06:24:00,65.0,64.1,29.99,East,82,0.0,0.0,97,0.00,,,0.00,Wunderground v.1.15,2013-01-21 11:24:00,
2013-01-21 06:25:00,65.1,64.2,29.99,East,82,0.0,0.0,97,0.00,,,0.00,Wunderground v.1.15,2013-01-21 11:25:00,
2013-01-21 06:29:00,65.2,64.6,29.99,East,82,0.0,0.0,98,0.00,,,0.00,Wunderground v.1.15,2013-01-21 11:29:00,
2013-01-21 06:30:00,65.3,64.7,29.98,East,81,0.0,0.0,98,0.00,,,0.00,Wunderground v.1.15,2013-01-21 11:30:00,
2013-01-21 06:34:00,65.5,64.9,29.99,East,82,0.0,0.0,98,0.00,,,0.00,Wunderground v.1.15,2013-01-21 11:34:00,
2013-01-21 06:35:00,65.6,65.0,29.99,East,82,0.0,0.0,98,0.00,,,0.00,Wunderground v.1.15,2013-01-21 11:35:00,
2013-01-21 06:37:00,65.5,64.9,29.99,East,82,0.0,0.0,98,0.00,,,0.00,Wunderground v.1.15,2013-01-21 11:37:00,
2013-01-21 06:39:00,65.4,64.8,29.99,East,82,0.0,0.0,98,0.00,,,0.00,Wunderground v.1.15,2013-01-21 11:39:00,
2013-01-21 06:40:00,65.4,64.8,29.99,East,82,0.0,0.0,98,0.00,,,0.00,Wunderground v.1.15,2013-01-21 11:40:00,
2013-01-21 06:42:00,65.4,64.8,29.99,East,81,0.0,0.0,98,0.00,,,0.00,Wunderground v.1.15,2013-01-21 11:42:00,
2013-01-21 06:45:00,65.4,64.8,29.99,East,82,0.0,0.0,98,0.00,,,0.00,Wunderground v.1.15,2013-01-21 11:45:00,
2013-01-21 06:48:00,65.4,64.8,29.99,East,82,0.0,0.0,98,0.00,,,0.00,Wunderground v.1.15,2013-01-21 11:48:00,
2013-01-21 06:50:00,65.2,64.6,29.99,East,82,0.0,0.0,98,0.00,,,0.00,Wunderground v.1.15,2013-01-21 11:50:00,
2013-01-21 06:51:00,65.1,64.2,29.99,East,82,0.0,0.0,97,0.00,,,0.00,Wunderground v.1.15,2013-01-21 11:51:00,
2013-01-21 06:53:00,64.9,64.0,29.99,East,82,0.0,0.0,97,0.00,,,0.00,Wunderground v.1.15,2013-01-21 11:53:00,
2013-01-21 06:55:00,64.7,64.1,29.99,East,82,0.0,0.0,98,0.00,,,0.00,Wunderground v.1.15,2013-01-21 11:55:00,
2013-01-21 06:56:00,64.7,64.1,29.99,East,82,0.0,0.0,98,0.00,,,0.00,Wunderground v.1.15,2013-01-21 11:56:00,
2013-01-21 06:58:00,64.8,64.2,30.00,East,82,0.0,0.0,98,0.00,,,0.00,Wunderground v.1.15,2013-01-21 11:58:00,
2013-01-21 07:00:00,64.8,64.2,30.00,East,82,0.0,0.0,98,0.00,,,0.00,Wunderground v.1.15,2013-01-21 12:00:00,
2013-01-21 07:01:00,64.7,64.1,30.00,East,82,0.0,0.0,98,0.00,,,0.00,Wunderground v.1.15,2013-01-21 12:01:00,
2013-01-21 07:03:00,64.7,64.1,30.00,East,82,0.0,0.0,98,0.00,,,0.00,Wunderground v.1.15,2013-01-21 12:03:00,
2013-01-21 07:07:00,64.7,64.1,30.00,East,82,0.0,0.0,98,0.00,,,0.00,Wunderground v.1.15,2013-01-21 12:07:00,
2013-01-21 07:08:00,64.7,64.1,30.00,East,82,0.0,0.0,98,0.00,,,0.00,Wunderground v.1.15,2013-01-21 12:08:00,
2013-01-21 07:09:00,64.7,64.1,30.00,East,82,0.0,0.0,98,0.00,,,0.00,Wunderground v.1.15,2013-01-21 12:09:00,
2013-01-21 07:12:00,64.7,64.1,30.00,East,82,0.0,0.0,98,0.00,,,0.00,Wunderground v.1.15,2013-01-21 12:12:00,
2013-01-21 07:13:00,64.7,64.1,30.00,East,82,0.0,0.0,98,0.00,,,0.00,Wunderground v.1.15,2013-01-21 12:13:00,
2013-01-21 07:14:00,64.6,64.0,30.00,East,82,0.0,0.0,98,0.00,,,0.00,Wunderground v.1.15,2013-01-21 12:14:00,
2013-01-21 07:17:00,64.7,64.1,30.00,East,82,0.0,0.0,98,0.00,,,0.00,Wunderground v.1.15,2013-01-21 12:17:00,
2013-01-21 07:18:00,64.8,64.2,30.00,East,82,0.0,0.0,98,0.00,,,0.00,Wunderground v.1.15,2013-01-21 12:18:00,
2013-01-21 07:20:00,65.0,64.4,30.00,East,82,0.0,0.0,98,0.00,,,0.00,Wunderground v.1.15,2013-01-21 12:20:00,
2013-01-21 07:23:00,65.3,64.7,30.00,East,82,0.0,0.0,98,0.00,,,0.00,Wunderground v.1.15,2013-01-21 12:23:00,
2013-01-21 07:25:00,65.3,64.7,30.00,East,81,0.0,0.0,98,0.00,,,0.00,Wunderground v.1.15,2013-01-21 12:25:00,
2013-01-21 07:28:00,65.3,64.7,30.00,East,82,0.0,0.0,98,0.00,,,0.00,Wunderground v.1.15,2013-01-21 12:28:00,
2013-01-21 07:29:00,65.3,64.7,30.00,East,82,0.0,0.0,98,0.00,,,0.00,Wunderground v.1.15,2013-01-21 12:29:00,
2013-01-21 07:31:00,65.2,64.6,30.00,East,82,0.0,0.0,98,0.00,,,0.00,Wunderground v.1.15,2013-01-21 12:31:00,
2013-01-21 07:33:00,65.1,64.5,30.00,East,82,0.0,0.0,98,0.00,,,0.00,Wunderground v.1.15,2013-01-21 12:33:00,
2013-01-21 07:34:00,65.2,64.6,30.00,East,82,0.0,0.0,98,0.00,,,0.00,Wunderground v.1.15,2013-01-21 12:34:00,
2013-01-21 07:36:00,65.1,64.5,30.00,East,82,0.0,0.0,98,0.00,,,0.00,Wunderground v.1.15,2013-01-21 12:36:00,
2013-01-21 07:38:00,65.0,64.4,30.00,East,82,0.0,0.0,98,0.00,,,0.00,Wunderground v.1.15,2013-01-21 12:38:00,
2013-01-21 07:39:00,65.0,64.4,30.00,East,82,0.0,0.0,98,0.00,,,0.00,Wunderground v.1.15,2013-01-21 12:39:00,
2013-01-21 07:41:00,65.0,64.4,30.00,East,82,0.0,0.0,98,0.00,,,0.00,Wunderground v.1.15,2013-01-21 12:41:00,
2013-01-21 07:43:00,65.2,64.6,30.00,East,82,0.0,0.0,98,0.00,,,0.00,Wunderground v.1.15,2013-01-21 12:43:00,
2013-01-21 07:44:00,65.4,64.8,30.00,East,82,0.0,0.0,98,0.00,,,0.00,Wunderground v.1.15,2013-01-21 12:44:00,
2013-01-21 07:45:00,65.6,65.0,30.00,East,82,0.0,0.0,98,0.00,,,0.00,Wunderground v.1.15,2013-01-21 12:45:00,
2013-01-21 07:47:00,66.0,65.4,30.00,East,82,0.0,0.0,98,0.00,,,0.00,Wunderground v.1.15,2013-01-21 12:47:00,
2013-01-21 07:49:00,66.2,65.6,30.00,East,82,0.0,0.0,98,0.00,,,0.00,Wunderground v.1.15,2013-01-21 12:49:00,
2013-01-21 07:50:00,66.1,65.5,30.01,East,82,0.0,0.0,98,0.00,,,0.00,Wunderground v.1.15,2013-01-21 12:50:00,
2013-01-21 07:52:00,66.1,65.5,30.01,East,82,0.0,0.0,98,0.00,,,0.00,Wunderground v.1.15,2013-01-21 12:52:00,
2013-01-21 07:54:00,66.5,65.9,30.01,East,82,0.0,0.0,98,0.00,,,0.00,Wunderground v.1.15,2013-01-21 12:54:00,
2013-01-21 07:55:00,66.6,66.0,30.01,East,82,0.0,0.0,98,0.00,,,0.00,Wunderground v.1.15,2013-01-21 12:55:00,
2013-01-21 07:56:00,66.8,66.2,30.01,East,82,0.0,0.0,98,0.00,,,0.00,Wunderground v.1.15,2013-01-21 12:56:00,
2013-01-21 07:57:00,66.7,66.1,30.01,East,82,0.0,0.0,98,0.00,,,0.00,Wunderground v.1.15,2013-01-21 12:57:00,
2013-01-21 07:59:00,66.7,66.1,30.01,East,82,0.0,0.0,98,0.00,,,0.00,Wunderground v.1.15,2013-01-21 12:59:00,
2013-01-21 08:00:00,66.6,66.0,30.01,East,82,0.0,0.0,98,0.00,,,0.00,Wunderground v.1.15,2013-01-21 13:00:00,
2013-01-21 08:01:00,66.7,66.1,30.01,East,82,0.0,0.0,98,0.00,,,0.00,Wunderground v.1.15,2013-01-21 13:01:00,
2013-01-21 08:02:00,66.6,66.0,30.01,East,82,0.0,0.0,98,0.00,,,0.00,Wunderground v.1.15,2013-01-21 13:02:00,
2013-01-21 08:04:00,66.6,66.0,30.01,East,82,0.0,0.0,98,0.00,,,0.00,Wunderground v.1.15,2013-01-21 13:04:00,
2013-01-21 08:05:00,66.5,65.9,30.01,East,82,0.0,0.0,98,0.00,,,0.00,Wunderground v.1.15,2013-01-21 13:05:00,
2013-01-21 08:07:00,66.5,65.9,30.01,East,82,0.0,0.0,98,0.00,,,0.00,Wunderground v.1.15,2013-01-21 13:07:00,
2013-01-21 08:08:00,66.6,66.0,30.01,East,82,0.0,0.0,98,0.00,,,0.00,Wunderground v.1.15,2013-01-21 13:08:00,
2013-01-21 08:09:00,66.6,66.0,30.01,East,82,0.0,0.0,98,0.00,,,0.00,Wunderground v.1.15,2013-01-21 13:09:00,
2013-01-21 08:10:00,66.6,66.0,30.01,East,82,0.0,0.0,98,0.00,,,0.00,Wunderground v.1.15,2013-01-21 13:10:00,
2013-01-21 08:12:00,66.7,66.1,30.01,East,82,0.0,0.0,98,0.00,,,0.00,Wunderground v.1.15,2013-01-21 13:12:00,
2013-01-21 08:13:00,66.7,66.1,30.01,East,82,0.0,0.0,98,0.00,,,0.00,Wunderground v.1.15,2013-01-21 13:13:00,
2013-01-21 08:15:00,66.8,66.2,30.02,East,82,0.0,0.0,98,0.00,,,0.00,Wunderground v.1.15,2013-01-21 13:15:00,
2013-01-21 08:17:00,66.9,66.3,30.02,East,82,0.0,0.0,98,0.00,,,0.00,Wunderground v.1.15,2013-01-21 13:17:00,
2013-01-21 08:19:00,67.1,66.5,30.03,East,82,0.0,0.0,98,0.00,,,0.00,Wunderground v.1.15,2013-01-21 13:19:00,
2013-01-21 08:20:00,67.1,66.5,30.03,East,82,0.0,0.0,98,0.00,,,0.00,Wunderground v.1.15,2013-01-21 13:20:00,
2013-01-21 08:21:00,67.2,66.6,30.03,East,82,0.0,0.0,98,0.00,,,0.00,Wunderground v.1.15,2013-01-21 13:21:00,
2013-01-21 08:22:00,67.3,66.7,30.03,East,82,0.0,0.0,98,0.00,,,0.00,Wunderground v.1.15,2013-01-21 13:22:00,
2013-01-21 08:25:00,67.7,67.1,30.03,East,82,0.0,0.0,98,0.00,,,0.00,Wunderground v.1.15,2013-01-21 13:25:00,
2013-01-21 08:26:00,67.7,67.1,30.03,East,82,0.0,0.0,98,0.00,,,0.00,Wunderground v.1.15,2013-01-21 13:26:00,
2013-01-21 08:27:00,67.7,67.1,30.03,East,82,0.0,0.0,98,0.00,,,0.00,Wunderground v.1.15,2013-01-21 13:27:00,
2013-01-21 08:28:00,67.9,67.3,30.03,East,82,0.0,0.0,98,0.00,,,0.00,Wunderground v.1.15,2013-01-21 13:28:00,
2013-01-21 08:30:00,68.0,67.4,30.02,East,82,0.0,0.0,98,0.00,,,0.00,Wunderground v.1.15,2013-01-21 13:30:00,
2013-01-21 08:32:00,68.0,67.4,30.02,East,82,0.0,0.0,98,0.00,,,0.00,Wunderground v.1.15,2013-01-21 13:32:00,
2013-01-21 08:33:00,68.1,67.5,30.02,East,82,0.0,0.0,98,0.00,,,0.00,Wunderground v.1.15,2013-01-21 13:33:00,
2013-01-21 08:35:00,68.2,67.6,30.02,East,82,0.0,0.0,98,0.00,,,0.00,Wunderground v.1.15,2013-01-21 13:35:00,
2013-01-21 08:37:00,68.4,67.8,30.02,East,82,0.0,0.0,98,0.00,,,0.00,Wunderground v.1.15,2013-01-21 13:37:00,
2013-01-21 08:38:00,68.4,67.8,30.03,East,82,0.0,0.0,98,0.00,,,0.00,Wunderground v.1.15,2013-01-21 13:38:00,
2013-01-21 08:41:00,68.6,68.0,30.03,East,82,0.0,0.0,98,0.00,,,0.00,Wunderground v.1.15,2013-01-21 13:41:00,
2013-01-21 08:43:00,68.8,68.2,30.03,East,82,0.0,0.0,98,0.00,,,0.00,Wunderground v.1.15,2013-01-21 13:43:00,
2013-01-21 08:44:00,68.8,68.2,30.02,East,82,0.0,0.0,98,0.00,,,0.00,Wunderground v.1.15,2013-01-21 13:44:00,
2013-01-21 08:46:00,69.5,68.9,30.02,East,82,0.0,0.0,98,0.00,,,0.00,Wunderground v.1.15,2013-01-21 13:46:00,
2013-01-21 08:48:00,69.6,69.0,30.02,East,82,0.0,0.0,98,0.00,,,0.00,Wunderground v.1.15,2013-01-21 13:48:00,
2013-01-21 08:49:00,69.6,69.0,30.02,East,82,0.0,0.0,98,0.00,,,0.00,Wunderground v.1.15,2013-01-21 13:49:00,
2013-01-21 08:51:00,69.8,69.2,30.02,East,82,0.0,0.0,98,0.00,,,0.00,Wunderground v.1.15,2013-01-21 13:51:00,
2013-01-21 08:54:00,69.9,69.3,30.02,East,82,0.0,0.0,98,0.00,,,0.00,Wunderground v.1.15,2013-01-21 13:54:00,
2013-01-21 08:56:00,69.9,69.3,30.02,East,82,0.0,0.0,98,0.00,,,0.00,Wunderground v.1.15,2013-01-21 13:56:00,
2013-01-21 08:59:00,70.0,69.4,30.02,East,82,0.0,0.0,98,0.00,,,0.00,Wunderground v.1.15,2013-01-21 13:59:00,
2013-01-21 09:00:00,70.0,69.4,30.02,East,82,0.0,0.0,98,0.00,,,0.00,Wunderground v.1.15,2013-01-21 14:00:00,
2013-01-21 09:01:00,70.1,69.2,30.02,East,82,0.0,0.0,97,0.00,,,0.00,Wunderground v.1.15,2013-01-21 14:01:00,
2013-01-21 09:04:00,70.6,69.7,30.03,East,82,0.0,0.0,97,0.00,,,0.00,Wunderground v.1.15,2013-01-21 14:04:00,
2013-01-21 09:05:00,70.8,69.9,30.03,East,82,0.0,0.0,97,0.00,,,0.00,Wunderground v.1.15,2013-01-21 14:05:00,
2013-01-21 09:06:00,71.0,70.1,30.03,East,82,0.0,0.0,97,0.00,,,0.00,Wunderground v.1.15,2013-01-21 14:06:00,
2013-01-21 09:10:00,71.5,70.6,30.03,East,82,0.0,0.0,97,0.00,,,0.00,Wunderground v.1.15,2013-01-21 14:10:00,
2013-01-21 09:11:00,71.6,70.4,30.03,East,82,0.0,0.0,96,0.00,,,0.00,Wunderground v.1.15,2013-01-21 14:11:00,
2013-01-21 09:12:00,71.7,70.5,30.03,East,82,0.0,0.0,96,0.00,,,0.00,Wunderground v.1.15,2013-01-21 14:12:00,
2013-01-21 09:15:00,72.2,70.7,30.02,East,82,0.0,0.0,95,0.00,,,0.00,Wunderground v.1.15,2013-01-21 14:15:00,
2013-01-21 09:16:00,72.3,70.8,30.03,East,82,0.0,0.0,95,0.00,,,0.00,Wunderground v.1.15,2013-01-21 14:16:00,
2013-01-21 09:17:00,72.4,70.9,30.03,East,82,0.0,0.0,95,0.00,,,0.00,Wunderground v.1.15,2013-01-21 14:17:00,
2013-01-21 09:21:00,72.7,70.9,30.03,East,82,0.0,0.0,94,0.00,,,0.00,Wunderground v.1.15,2013-01-21 14:21:00,
2013-01-21 09:22:00,72.7,70.6,30.03,East,82,0.0,0.0,93,0.00,,,0.00,Wunderground v.1.15,2013-01-21 14:22:00,
2013-01-21 09:27:00,73.2,70.7,30.03,East,82,0.0,0.0,92,0.00,,,0.00,Wunderground v.1.15,2013-01-21 14:27:00,
2013-01-21 09:28:00,73.3,70.8,30.03,East,82,0.0,0.0,92,0.00,,,0.00,Wunderground v.1.15,2013-01-21 14:28:00,
2013-01-21 09:32:00,73.6,70.8,30.03,East,82,0.0,0.0,91,0.00,,,0.00,Wunderground v.1.15,2013-01-21 14:32:00,
2013-01-21 09:33:00,73.7,70.9,30.03,East,82,0.0,0.0,91,0.00,,,0.00,Wunderground v.1.15,2013-01-21 14:33:00,
2013-01-21 09:37:00,73.9,70.8,30.03,East,82,0.0,0.0,90,0.00,,,0.00,Wunderground v.1.15,2013-01-21 14:37:00,
2013-01-21 09:38:00,73.9,70.8,30.03,East,82,0.0,0.0,90,0.00,,,0.00,Wunderground v.1.15,2013-01-21 14:38:00,
2013-01-21 09:39:00,74.1,71.0,30.03,East,89,0.0,0.0,90,0.00,,,0.00,Wunderground v.1.15,2013-01-21 14:39:00,
2013-01-21 09:42:00,74.3,70.8,30.03,East,92,0.0,0.0,89,0.00,,,0.00,Wunderground v.1.15,2013-01-21 14:42:00,
2013-01-21 09:43:00,74.3,70.8,30.03,East,92,0.0,0.0,89,0.00,,,0.00,Wunderground v.1.15,2013-01-21 14:43:00,
2013-01-21 09:44:00,74.3,70.5,30.03,East,92,0.0,0.0,88,0.00,,,0.00,Wunderground v.1.15,2013-01-21 14:44:00,
2013-01-21 09:45:00,74.4,70.6,30.03,East,89,2.0,4.0,88,0.00,,,0.00,Wunderground v.1.15,2013-01-21 14:45:00,
2013-01-21 09:48:00,74.5,70.4,30.03,East,89,2.0,5.0,87,0.00,,,0.00,Wunderground v.1.15,2013-01-21 14:48:00,
2013-01-21 09:49:00,74.5,70.4,30.03,East,94,4.0,5.0,87,0.00,,,0.00,Wunderground v.1.15,2013-01-21 14:49:00,
2013-01-21 09:51:00,74.6,70.5,30.03,East,92,4.0,5.0,87,0.00,,,0.00,Wunderground v.1.15,2013-01-21 14:51:00,
2013-01-21 09:53:00,74.7,70.6,30.03,East,90,0.0,6.0,87,0.00,,,0.00,Wunderground v.1.15,2013-01-21 14:53:00,
2013-01-21 09:54:00,74.7,70.6,30.03,East,90,2.0,6.0,87,0.00,,,0.00,Wunderground v.1.15,2013-01-21 14:54:00,
2013-01-21 09:55:00,74.8,70.7,30.03,East,87,0.0,6.0,87,0.00,,,0.00,Wunderground v.1.15,2013-01-21 14:55:00,
2013-01-21 09:58:00,75.0,70.9,30.03,East,86,5.0,6.0,87,0.00,,,0.00,Wunderground v.1.15,2013-01-21 14:58:00,
2013-01-21 09:59:00,75.1,70.6,30.03,East,88,4.0,4.0,86,0.00,,,0.00,Wunderground v.1.15,2013-01-21 14:59:00,
2013-01-21 10:00:00,75.1,70.6,30.03,East,88,5.0,5.0,86,0.00,,,0.00,Wunderground v.1.15,2013-01-21 15:00:00,
2013-01-21 10:03:00,75.5,71.0,30.03,East,87,0.0,5.0,86,0.00,,,0.00,Wunderground v.1.15,2013-01-21 15:03:00,
2013-01-21 10:04:00,75.5,70.7,30.03,East,87,0.0,5.0,85,0.00,,,0.00,Wunderground v.1.15,2013-01-21 15:04:00,
2013-01-21 10:06:00,75.6,70.4,30.03,East,92,5.0,5.0,84,0.00,,,0.00,Wunderground v.1.15,2013-01-21 15:06:00,
2013-01-21 10:09:00,75.7,70.2,30.03,ESE,105,0.0,1.0,83,0.00,,,0.00,Wunderground v.1.15,2013-01-21 15:09:00,
2013-01-21 10:10:00,75.7,70.2,30.03,ESE,105,0.0,1.0,83,0.00,,,0.00,Wunderground v.1.15,2013-01-21 15:10:00,
2013-01-21 10:12:00,75.8,70.3,30.03,ESE,103,5.0,5.0,83,0.00,,,0.00,Wunderground v.1.15,2013-01-21 15:12:00,
2013-01-21 10:15:00,75.9,70.0,30.03,ESE,103,0.0,6.0,82,0.00,,,0.00,Wunderground v.1.15,2013-01-21 15:15:00,
2013-01-21 10:16:00,75.9,69.6,30.03,ESE,103,0.0,6.0,81,0.00,,,0.00,Wunderground v.1.15,2013-01-21 15:16:00,
2013-01-21 10:17:00,75.9,69.6,30.03,ESE,102,0.0,6.0,81,0.00,,,0.00,Wunderground v.1.15,2013-01-21 15:17:00,
2013-01-21 10:20:00,75.8,69.9,30.03,East,99,0.0,4.0,82,0.00,,,0.00,Wunderground v.1.15,2013-01-21 15:20:00,
2013-01-21 10:21:00,75.8,69.9,30.03,East,99,0.0,4.0,82,0.00,,,0.00,Wunderground v.1.15,2013-01-21 15:21:00,
2013-01-21 10:22:00,75.7,68.7,30.03,East,100,2.0,4.0,79,0.00,,,0.00,Wunderground v.1.15,2013-01-21 15:22:00,
2013-01-21 10:25:00,75.7,68.0,30.03,East,100,0.0,4.0,77,0.00,,,0.00,Wunderground v.1.15,2013-01-21 15:25:00,
2013-01-21 10:26:00,75.7,67.6,30.03,East,100,0.0,4.0,76,0.00,,,0.00,Wunderground v.1.15,2013-01-21 15:26:00,
2013-01-21 10:27:00,75.8,67.7,30.03,East,100,0.0,4.0,76,0.00,,,0.00,Wunderground v.1.15,2013-01-21 15:27:00,
2013-01-21 10:28:00,75.9,68.2,30.03,East,100,0.0,4.0,77,0.00,,,0.00,Wunderground v.1.15,2013-01-21 15:28:00,
2013-01-21 10:30:00,75.9,68.9,30.03,East,100,0.0,4.0,79,0.00,,,0.00,Wunderground v.1.15,2013-01-21 15:30:00,
2013-01-21 10:32:00,75.9,68.5,30.03,East,100,0.0,4.0,78,0.00,,,0.00,Wunderground v.1.15,2013-01-21 15:32:00,
2013-01-21 10:33:00,75.8,68.8,30.03,East,100,0.0,4.0,79,0.00,,,0.00,Wunderground v.1.15,2013-01-21 15:33:00,
2013-01-21 10:34:00,75.9,69.3,30.03,East,96,5.0,5.0,80,0.00,,,0.00,Wunderground v.1.15,2013-01-21 15:34:00,
2013-01-21 10:35:00,75.9,69.3,30.03,East,95,0.0,6.0,80,0.00,,,0.00,Wunderground v.1.15,2013-01-21 15:35:00,
2013-01-21 10:37:00,75.9,69.3,30.03,East,95,0.0,6.0,80,0.00,,,0.00,Wunderground v.1.15,2013-01-21 15:37:00,
2013-01-21 10:38:00,75.9,69.6,30.03,East,94,4.0,6.0,81,0.00,,,0.00,Wunderground v.1.15,2013-01-21 15:38:00,
2013-01-21 10:39:00,75.9,69.6,30.03,East,96,0.0,1.0,81,0.00,,,0.00,Wunderground v.1.15,2013-01-21 15:39:00,
2013-01-21 10:41:00,75.9,69.6,30.03,East,99,0.0,2.0,81,0.00,,,0.00,Wunderground v.1.15,2013-01-21 15:41:00,
2013-01-21 10:42:00,75.9,69.6,30.03,East,99,0.0,3.0,81,0.00,,,0.00,Wunderground v.1.15,2013-01-21 15:42:00,
2013-01-21 10:43:00,76.0,69.7,30.03,East,99,0.0,3.0,81,0.00,,,0.00,Wunderground v.1.15,2013-01-21 15:43:00,
2013-01-21 10:44:00,76.1,69.8,30.03,East,98,0.0,3.0,81,0.00,,,0.00,Wunderground v.1.15,2013-01-21 15:44:00,
2013-01-21 10:46:00,76.3,70.0,30.03,East,93,2.0,5.0,81,0.00,,,0.00,Wunderground v.1.15,2013-01-21 15:46:00,
2013-01-21 10:47:00,76.3,69.7,30.03,East,96,2.0,5.0,80,0.00,,,0.00,Wunderground v.1.15,2013-01-21 15:47:00,
2013-01-21 10:48:00,76.3,69.7,30.03,East,96,1.0,5.0,80,0.00,,,0.00,Wunderground v.1.15,2013-01-21 15:48:00,
2013-01-21 10:50:00,76.2,69.6,30.03,East,96,0.0,1.0,80,0.00,,,0.00,Wunderground v.1.15,2013-01-21 15:50:00,
2013-01-21 10:51:00,76.2,69.6,30.03,East,96,0.0,1.0,80,0.00,,,0.00,Wunderground v.1.15,2013-01-21 15:51:00,
2013-01-21 10:52:00,76.2,69.9,30.03,East,101,0.0,4.0,81,0.00,,,0.00,Wunderground v.1.15,2013-01-21 15:52:00,
2013-01-21 10:53:00,76.2,69.9,30.03,East,101,0.0,4.0,81,0.00,,,0.00,Wunderground v.1.15,2013-01-21 15:53:00,
2013-01-21 10:56:00,76.6,70.7,30.03,East,101,0.0,4.0,82,0.00,,,0.00,Wunderground v.1.15,2013-01-21 15:56:00,
2013-01-21 10:57:00,76.8,70.5,30.03,East,101,0.0,4.0,81,0.00,,,0.00,Wunderground v.1.15,2013-01-21 15:57:00,
2013-01-21 10:58:00,76.9,70.6,30.03,East,101,0.0,4.0,81,0.00,,,0.00,Wunderground v.1.15,2013-01-21 15:58:00,
2013-01-21 11:01:00,76.9,69.5,30.03,East,101,0.0,0.0,78,0.00,,,0.00,Wunderground v.1.15,2013-01-21 16:01:00,
2013-01-21 11:03:00,76.9,69.5,30.03,East,101,0.0,0.0,78,0.00,,,0.00,Wunderground v.1.15,2013-01-21 16:03:00,
2013-01-21 11:04:00,76.8,69.4,30.03,East,101,0.0,0.0,78,0.00,,,0.00,Wunderground v.1.15,2013-01-21 16:04:00,
2013-01-21 11:06:00,76.7,68.9,30.03,East,101,2.0,5.0,77,0.00,,,0.00,Wunderground v.1.15,2013-01-21 16:06:00,
2013-01-21 11:08:00,76.7,69.7,30.03,ESE,105,0.0,7.0,79,0.00,,,0.00,Wunderground v.1.15,2013-01-21 16:08:00,
2013-01-21 11:09:00,76.7,69.3,30.03,ESE,103,0.0,7.0,78,0.00,,,0.00,Wunderground v.1.15,2013-01-21 16:09:00,
2013-01-21 11:12:00,76.8,69.4,30.02,East,95,0.0,1.0,78,0.00,,,0.00,Wunderground v.1.15,2013-01-21 16:12:00,
2013-01-21 11:13:00,76.8,69.4,30.02,East,93,0.0,1.0,78,0.00,,,0.00,Wunderground v.1.15,2013-01-21 16:13:00,
2013-01-21 11:14:00,76.8,69.4,30.02,East,93,0.0,1.0,78,0.00,,,0.00,Wunderground v.1.15,2013-01-21 16:14:00,
2013-01-21 11:18:00,77.4,70.4,30.02,East,96,1.0,1.0,79,0.00,,,0.00,Wunderground v.1.15,2013-01-21 16:18:00,
2013-01-21 11:19:00,77.6,70.2,30.02,East,99,0.0,4.0,78,0.00,,,0.00,Wunderground v.1.15,2013-01-21 16:19:00,
2013-01-21 11:20:00,77.8,70.4,30.02,ESE,112,4.0,5.0,78,0.00,,,0.00,Wunderground v.1.15,2013-01-21 16:20:00,
2013-01-21 11:23:00,78.4,70.2,30.02,ESE,110,5.0,6.0,76,0.00,,,0.00,Wunderground v.1.15,2013-01-21 16:23:00,
2013-01-21 11:24:00,78.5,70.3,30.02,SSE,159,1.0,7.0,76,0.00,,,0.00,Wunderground v.1.15,2013-01-21 16:24:00,
2013-01-21 11:25:00,78.4,69.8,30.02,SSE,158,0.0,7.0,75,0.00,,,0.00,Wunderground v.1.15,2013-01-21 16:25:00,
2013-01-21 11:29:00,78.5,69.9,30.02,South,173,0.0,7.0,75,0.00,,,0.00,Wunderground v.1.15,2013-01-21 16:29:00,
2013-01-21 11:30:00,78.6,70.4,30.02,South,173,0.0,2.0,76,0.00,,,0.00,Wunderground v.1.15,2013-01-21 16:30:00,
2013-01-21 11:31:00,78.7,70.5,30.02,South,173,0.0,2.0,76,0.00,,,0.00,Wunderground v.1.15,2013-01-21 16:31:00,
2013-01-21 11:34:00,78.9,69.9,30.02,SE,146,1.0,6.0,74,0.00,,,0.00,Wunderground v.1.15,2013-01-21 16:34:00,
2013-01-21 11:35:00,78.9,69.5,30.01,SE,136,6.0,6.0,73,0.00,,,0.00,Wunderground v.1.15,2013-01-21 16:35:00,
2013-01-21 11:37:00,78.7,69.7,30.02,SE,141,0.0,6.0,74,0.00,,,0.00,Wunderground v.1.15,2013-01-21 16:37:00,
2013-01-21 11:39:00,78.5,69.5,30.02,SE,142,0.0,6.0,74,0.00,,,0.00,Wunderground v.1.15,2013-01-21 16:39:00,
2013-01-21 11:40:00,78.5,69.5,30.01,SE,142,0.0,2.0,74,0.00,,,0.00,Wunderground v.1.15,2013-01-21 16:40:00,
2013-01-21 11:42:00,78.5,69.9,30.01,SSE,163,4.0,4.0,75,0.00,,,0.00,Wunderground v.1.15,2013-01-21 16:42:00,
2013-01-21 11:44:00,79.0,70.0,30.01,SSE,158,0.0,4.0,74,0.00,,,0.00,Wunderground v.1.15,2013-01-21 16:44:00,
2013-01-21 11:45:00,78.9,69.9,30.01,SSE,158,0.0,5.0,74,0.00,,,0.00,Wunderground v.1.15,2013-01-21 16:45:00,
2013-01-21 11:47:00,78.8,69.4,30.01,SSE,158,0.0,5.0,73,0.00,,,0.00,Wunderground v.1.15,2013-01-21 16:47:00,
2013-01-21 11:50:00,79.5,70.9,30.01,SSE,158,0.0,1.0,75,0.00,,,0.00,Wunderground v.1.15,2013-01-21 16:50:00,
2013-01-21 11:51:00,79.6,71.0,30.01,SSE,158,0.0,1.0,75,0.00,,,0.00,Wunderground v.1.15,2013-01-21 16:51:00,
2013-01-21 11:52:00,79.5,69.7,30.01,SSE,158,0.0,1.0,72,0.00,,,0.00,Wunderground v.1.15,2013-01-21 16:52:00,
2013-01-21 11:56:00,79.3,69.5,30.01,SSE,158,0.0,4.0,72,0.00,,,0.00,Wunderground v.1.15,2013-01-21 16:56:00,
2013-01-21 11:57:00,79.1,69.7,30.01,SSE,158,0.0,4.0,73,0.00,,,0.00,Wunderground v.1.15,2013-01-21 16:57:00,
2013-01-21 11:58:00,79.1,69.7,30.01,SSE,158,0.0,4.0,73,0.00,,,0.00,Wunderground v.1.15,2013-01-21 16:58:00,
2013-01-21 12:01:00,79.1,70.1,30.01,SSE,166,0.0,0.0,74,0.00,,,0.00,Wunderground v.1.15,2013-01-21 17:01:00,
2013-01-21 12:03:00,79.2,70.2,30.01,SSE,166,0.0,0.0,74,0.00,,,0.00,Wunderground v.1.15,2013-01-21 17:03:00,
2013-01-21 12:04:00,79.3,70.3,30.01,SSE,166,0.0,0.0,74,0.00,,,0.00,Wunderground v.1.15,2013-01-21 17:04:00,
2013-01-21 12:07:00,79.2,71.0,30.00,SSE,166,0.0,0.0,76,0.00,,,0.00,Wunderground v.1.15,2013-01-21 17:07:00,
2013-01-21 12:08:00,79.2,70.6,30.00,SSE,166,0.0,0.0,75,0.00,,,0.00,Wunderground v.1.15,2013-01-21 17:08:00,
2013-01-21 12:09:00,79.1,69.7,30.00,SSE,166,0.0,0.0,73,0.00,,,0.00,Wunderground v.1.15,2013-01-21 17:09:00,
2013-01-21 12:10:00,79.1,70.1,30.00,SSE,166,0.0,0.0,74,0.00,,,0.00,Wunderground v.1.15,2013-01-21 17:10:00,
2013-01-21 12:12:00,79.0,70.0,30.00,SSE,166,0.0,0.0,74,0.00,,,0.00,Wunderground v.1.15,2013-01-21 17:12:00,
2013-01-21 12:14:00,78.9,69.5,30.00,SSE,166,0.0,0.0,73,0.00,,,0.00,Wunderground v.1.15,2013-01-21 17:14:00,
2013-01-21 12:15:00,78.8,69.4,30.00,SSE,166,0.0,0.0,73,0.00,,,0.00,Wunderground v.1.15,2013-01-21 17:15:00,
2013-01-21 12:19:00,78.8,69.4,30.00,SSE,166,0.0,1.0,73,0.00,,,0.00,Wunderground v.1.15,2013-01-21 17:19:00,
2013-01-21 12:20:00,79.0,70.0,29.99,SSE,167,0.0,0.0,74,0.00,,,0.00,Wunderground v.1.15,2013-01-21 17:20:00,
2013-01-21 12:24:00,78.8,69.0,29.99,SSE,167,1.0,2.0,72,0.00,,,0.00,Wunderground v.1.15,2013-01-21 17:24:00,
2013-01-21 12:25:00,78.7,69.3,29.99,SSE,167,0.0,2.0,73,0.00,,,0.00,Wunderground v.1.15,2013-01-21 17:25:00,
2013-01-21 12:29:00,78.7,69.3,29.99,SSE,167,0.0,2.0,73,0.00,,,0.00,Wunderground v.1.15,2013-01-21 17:29:00,
2013-01-21 12:30:00,78.7,69.3,29.99,SSE,167,0.0,0.0,73,0.00,,,0.00,Wunderground v.1.15,2013-01-21 17:30:00,
2013-01-21 12:31:00,78.6,69.2,29.99,SSE,167,0.0,5.0,73,0.00,,,0.00,Wunderground v.1.15,2013-01-21 17:31:00,
2013-01-21 12:34:00,78.4,69.0,29.99,SSE,167,1.0,5.0,73,0.00,,,0.00,Wunderground v.1.15,2013-01-21 17:34:00,
2013-01-21 12:35:00,78.3,68.9,29.99,SSE,167,0.0,5.0,73,0.00,,,0.00,Wunderground v.1.15,2013-01-21 17:35:00,
2013-01-21 12:36:00,78.3,68.9,29.99,SSE,167,0.0,5.0,73,0.00,,,0.00,Wunderground v.1.15,2013-01-21 17:36:00,
2013-01-21 12:39:00,78.4,69.0,29.98,SSE,167,0.0,1.0,73,0.00,,,0.00,Wunderground v.1.15,2013-01-21 17:39:00,
2013-01-21 12:41:00,78.3,68.5,29.98,SSE,167,0.0,1.0,72,0.00,,,0.00,Wunderground v.1.15,2013-01-21 17:41:00,
2013-01-21 12:42:00,78.4,69.4,29.98,SSE,167,0.0,1.0,74,0.00,,,0.00,Wunderground v.1.15,2013-01-21 17:42:00,
2013-01-21 12:44:00,78.6,69.2,29.98,SSE,167,0.0,1.0,73,0.00,,,0.00,Wunderground v.1.15,2013-01-21 17:44:00,
2013-01-21 12:46:00,78.6,69.2,29.98,SSE,167,0.0,1.0,73,0.00,,,0.00,Wunderground v.1.15,2013-01-21 17:46:00,
2013-01-21 12:47:00,78.7,69.3,29.98,SSE,167,0.0,1.0,73,0.00,,,0.00,Wunderground v.1.15,2013-01-21 17:47:00,
2013-01-21 12:48:00,78.7,68.5,29.98,SSE,167,0.0,1.0,71,0.00,,,0.00,Wunderground v.1.15,2013-01-21 17:48:00,
2013-01-21 12:50:00,78.9,68.7,29.97,South,169,0.0,0.0,71,0.00,,,0.00,Wunderground v.1.15,2013-01-21 17:50:00,
2013-01-21 12:51:00,79.2,69.4,29.97,South,169,0.0,0.0,72,0.00,,,0.00,Wunderground v.1.15,2013-01-21 17:51:00,
2013-01-21 12:52:00,79.6,70.6,29.97,South,169,0.0,0.0,74,0.00,,,0.00,Wunderground v.1.15,2013-01-21 17:52:00,
2013-01-21 12:53:00,79.9,70.1,29.97,South,169,0.0,0.0,72,0.00,,,0.00,Wunderground v.1.15,2013-01-21 17:53:00,
2013-01-21 12:56:00,80.2,69.1,29.97,South,169,0.0,0.0,69,0.00,,,0.00,Wunderground v.1.15,2013-01-21 17:56:00,
2013-01-21 12:57:00,80.5,70.6,29.97,SSE,164,0.0,0.0,72,0.00,,,0.00,Wunderground v.1.15,2013-01-21 17:57:00,
2013-01-21 12:58:00,80.9,69.3,29.97,SSE,164,0.0,0.0,68,0.00,,,0.00,Wunderground v.1.15,2013-01-21 17:58:00,
2013-01-21 13:01:00,80.9,68.9,29.97,South,189,0.0,6.0,67,0.00,,,0.00,Wunderground v.1.15,2013-01-21 18:01:00,
2013-01-21 13:02:00,80.8,68.8,29.97,South,189,0.0,6.0,67,0.00,,,0.00,Wunderground v.1.15,2013-01-21 18:02:00,
2013-01-21 13:03:00,80.6,68.6,29.97,South,189,0.0,6.0,67,0.00,,,0.00,Wunderground v.1.15,2013-01-21 18:03:00,
2013-01-21 13:07:00,79.9,68.4,29.97,South,189,0.0,6.0,68,0.00,,,0.00,Wunderground v.1.15,2013-01-21 18:07:00,
2013-01-21 13:09:00,79.9,69.7,29.97,South,189,0.0,6.0,71,0.00,,,0.00,Wunderground v.1.15,2013-01-21 18:09:00,
2013-01-21 13:12:00,80.2,70.4,29.96,South,189,0.0,0.0,72,0.00,,,0.00,Wunderground v.1.15,2013-01-21 18:12:00,
2013-01-21 13:13:00,80.2,70.4,29.96,South,189,0.0,0.0,72,0.00,,,0.00,Wunderground v.1.15,2013-01-21 18:13:00,
2013-01-21 13:14:00,80.2,69.5,29.96,South,189,0.0,0.0,70,0.00,,,0.00,Wunderground v.1.15,2013-01-21 18:14:00,
2013-01-21 13:18:00,80.7,70.8,29.96,South,189,0.0,0.0,72,0.00,,,0.00,Wunderground v.1.15,2013-01-21 18:18:00,
2013-01-21 13:19:00,80.6,70.3,29.96,South,189,0.0,0.0,71,0.00,,,0.00,Wunderground v.1.15,2013-01-21 18:19:00,
2013-01-21 13:23:00,80.8,70.9,29.96,SSW,198,0.0,1.0,72,0.00,,,0.00,Wunderground v.1.15,2013-01-21 18:23:00,
2013-01-21 13:24:00,81.1,70.4,29.96,SSW,198,0.0,1.0,70,0.00,,,0.00,Wunderground v.1.15,2013-01-21 18:24:00,
2013-01-21 13:25:00,81.2,70.5,29.96,SSW,206,0.0,1.0,70,0.00,,,0.00,Wunderground v.1.15,2013-01-21 18:25:00,
2013-01-21 13:28:00,80.9,70.2,29.95,SSW,205,0.0,1.0,70,0.00,,,0.00,Wunderground v.1.15,2013-01-21 18:28:00,
2013-01-21 13:30:00,80.3,68.8,29.95,SSW,206,0.0,0.0,68,0.00,,,0.00,Wunderground v.1.15,2013-01-21 18:30:00,
2013-01-21 13:31:00,80.1,69.8,29.95,SW,217,0.0,0.0,71,0.00,,,0.00,Wunderground v.1.15,2013-01-21 18:31:00,
2013-01-21 13:33:00,79.7,69.9,29.95,SW,219,0.0,0.0,72,0.00,,,0.00,Wunderground v.1.15,2013-01-21 18:33:00,
2013-01-21 13:34:00,79.6,69.8,29.95,SW,219,0.0,0.0,72,0.00,,,0.00,Wunderground v.1.15,2013-01-21 18:34:00,
2013-01-21 13:35:00,79.5,70.1,29.95,SW,219,0.0,0.0,73,0.00,,,0.00,Wunderground v.1.15,2013-01-21 18:35:00,
2013-01-21 13:36:00,79.4,70.0,29.95,SW,219,0.0,0.0,73,0.00,,,0.00,Wunderground v.1.15,2013-01-21 18:36:00,
2013-01-21 13:39:00,79.3,69.1,29.95,South,186,0.0,5.0,71,0.00,,,0.00,Wunderground v.1.15,2013-01-21 18:39:00,
2013-01-21 13:41:00,79.1,69.3,29.95,SSW,198,0.0,0.0,72,0.00,,,0.00,Wunderground v.1.15,2013-01-21 18:41:00,
2013-01-21 13:44:00,78.7,70.1,29.95,SSE,151,0.0,6.0,75,0.00,,,0.00,Wunderground v.1.15,2013-01-21 18:44:00,
2013-01-21 13:46:00,78.3,69.7,29.95,South,175,0.0,6.0,75,0.00,,,0.00,Wunderground v.1.15,2013-01-21 18:46:00,
2013-01-21 13:49:00,77.9,69.3,29.95,South,172,4.0,6.0,75,0.00,,,0.00,Wunderground v.1.15,2013-01-21 18:49:00,
2013-01-21 13:50:00,77.7,69.1,29.95,South,169,0.0,1.0,75,0.00,,,0.00,Wunderground v.1.15,2013-01-21 18:50:00,
2013-01-21 13:52:00,77.6,69.0,29.95,South,169,0.0,1.0,75,0.00,,,0.00,Wunderground v.1.15,2013-01-21 18:52:00,
2013-01-21 13:53:00,77.6,69.0,29.95,South,169,0.0,1.0,75,0.00,,,0.00,Wunderground v.1.15,2013-01-21 18:53:00,
2013-01-21 13:55:00,77.6,69.4,29.95,South,169,0.0,1.0,76,0.00,,,0.00,Wunderground v.1.15,2013-01-21 18:55:00,
2013-01-21 13:57:00,77.7,69.5,29.95,South,169,0.0,1.0,76,0.00,,,0.00,Wunderground v.1.15,2013-01-21 18:57:00,
2013-01-21 13:58:00,77.9,69.7,29.95,South,169,0.0,1.0,76,0.00,,,0.00,Wunderground v.1.15,2013-01-21 18:58:00,
2013-01-21 14:00:00,78.0,69.4,29.95,South,169,0.0,0.0,75,0.00,,,0.00,Wunderground v.1.15,2013-01-21 19:00:00,
2013-01-21 14:01:00,78.1,69.5,29.95,South,169,0.0,0.0,75,0.00,,,0.00,Wunderground v.1.15,2013-01-21 19:01:00,
2013-01-21 14:04:00,78.7,70.9,29.95,South,169,0.0,0.0,77,0.00,,,0.00,Wunderground v.1.15,2013-01-21 19:04:00,
2013-01-21 14:05:00,78.9,71.1,29.94,South,169,0.0,0.0,77,0.00,,,0.00,Wunderground v.1.15,2013-01-21 19:05:00,
2013-01-21 14:07:00,79.0,70.8,29.94,South,169,0.0,0.0,76,0.00,,,0.00,Wunderground v.1.15,2013-01-21 19:07:00,
2013-01-21 14:09:00,79.0,70.0,29.94,South,169,1.0,1.0,74,0.00,,,0.00,Wunderground v.1.15,2013-01-21 19:09:00,
2013-01-21 14:11:00,79.0,70.8,29.94,South,170,0.0,1.0,76,0.00,,,0.00,Wunderground v.1.15,2013-01-21 19:11:00,
2013-01-21 14:13:00,78.9,70.3,29.94,South,173,0.0,1.0,75,0.00,,,0.00,Wunderground v.1.15,2013-01-21 19:13:00,
2013-01-21 14:14:00,78.8,70.2,29.94,South,173,0.0,1.0,75,0.00,,,0.00,Wunderground v.1.15,2013-01-21 19:14:00,
2013-01-21 14:15:00,78.7,69.7,29.94,South,173,0.0,1.0,74,0.00,,,0.00,Wunderground v.1.15,2013-01-21 19:15:00,
2013-01-21 14:16:00,78.7,69.7,29.94,South,173,0.0,1.0,74,0.00,,,0.00,Wunderground v.1.15,2013-01-21 19:16:00,
2013-01-21 14:19:00,78.4,69.0,29.94,South,173,0.0,1.0,73,0.00,,,0.00,Wunderground v.1.15,2013-01-21 19:19:00,
2013-01-21 14:21:00,78.4,69.0,29.94,South,173,0.0,0.0,73,0.00,,,0.00,Wunderground v.1.15,2013-01-21 19:21:00,
2013-01-21 14:24:00,78.2,69.2,29.93,South,173,0.0,0.0,74,0.00,,,0.00,Wunderground v.1.15,2013-01-21 19:24:00,
2013-01-21 14:26:00,78.1,68.7,29.93,South,173,0.0,0.0,73,0.00,,,0.00,Wunderground v.1.15,2013-01-21 19:26:00,
2013-01-21 14:29:00,77.9,68.5,29.93,South,173,0.0,0.0,73,0.00,,,0.00,Wunderground v.1.15,2013-01-21 19:29:00,
2013-01-21 14:30:00,77.9,68.5,29.93,South,173,0.0,0.0,73,0.00,,,0.00,Wunderground v.1.15,2013-01-21 19:30:00,
2013-01-21 14:32:00,77.8,68.8,29.93,South,173,0.0,0.0,74,0.00,,,0.00,Wunderground v.1.15,2013-01-21 19:32:00,
2013-01-21 14:35:00,77.9,69.3,29.93,South,173,0.0,0.0,75,0.00,,,0.00,Wunderground v.1.15,2013-01-21 19:35:00,
2013-01-21 14:37:00,78.1,69.9,29.93,South,173,0.0,0.0,76,0.00,,,0.00,Wunderground v.1.15,2013-01-21 19:37:00,
2013-01-21 14:38:00,78.2,70.0,29.93,South,173,0.0,0.0,76,0.00,,,0.00,Wunderground v.1.15,2013-01-21 19:38:00,
2013-01-21 14:40:00,78.2,70.0,29.93,South,173,0.0,0.0,76,0.00,,,0.00,Wunderground v.1.15,2013-01-21 19:40:00,
2013-01-21 14:43:00,78.3,70.5,29.93,South,173,0.0,0.0,77,0.00,,,0.00,Wunderground v.1.15,2013-01-21 19:43:00,
2013-01-21 14:45:00,78.3,69.7,29.93,South,173,0.0,0.0,75,0.00,,,0.00,Wunderground v.1.15,2013-01-21 19:45:00,
2013-01-21 14:46:00,78.3,69.7,29.93,South,175,1.0,1.0,75,0.00,,,0.00,Wunderground v.1.15,2013-01-21 19:46:00,
2013-01-21 14:48:00,78.3,68.9,29.93,South,191,0.0,2.0,73,0.00,,,0.00,Wunderground v.1.15,2013-01-21 19:48:00,
2013-01-21 14:50:00,78.5,69.1,29.93,SW,217,0.0,1.0,73,0.00,,,0.00,Wunderground v.1.15,2013-01-21 19:50:00,
2013-01-21 14:51:00,78.6,69.2,29.93,SW,217,0.0,1.0,73,0.00,,,0.00,Wunderground v.1.15,2013-01-21 19:51:00,
2013-01-21 14:53:00,79.7,70.3,29.93,SW,223,3.0,3.0,73,0.00,,,0.00,Wunderground v.1.15,2013-01-21 19:53:00,
2013-01-21 14:54:00,79.9,70.5,29.93,SW,225,0.0,3.0,73,0.00,,,0.00,Wunderground v.1.15,2013-01-21 19:54:00,
2013-01-21 14:55:00,80.7,71.6,29.93,SW,225,0.0,3.0,74,0.00,,,0.00,Wunderground v.1.15,2013-01-21 19:55:00,
2013-01-21 14:56:00,81.5,72.0,29.93,SW,236,0.0,4.0,73,0.00,,,0.00,Wunderground v.1.15,2013-01-21 19:56:00,
2013-01-21 14:59:00,82.2,70.1,29.93,WSW,244,0.0,4.0,67,0.00,,,0.00,Wunderground v.1.15,2013-01-21 19:59:00,
2013-01-21 15:01:00,82.4,70.8,29.93,WSW,244,1.0,2.0,68,0.00,,,0.00,Wunderground v.1.15,2013-01-21 20:01:00,
2013-01-21 15:04:00,82.1,70.1,29.92,WSW,247,1.0,2.0,67,0.00,,,0.00,Wunderground v.1.15,2013-01-21 20:04:00,
2013-01-21 15:06:00,82.1,70.9,29.93,WSW,247,0.0,4.0,69,0.00,,,0.00,Wunderground v.1.15,2013-01-21 20:06:00,
2013-01-21 15:08:00,82.3,70.7,29.93,WSW,248,0.0,4.0,68,0.00,,,0.00,Wunderground v.1.15,2013-01-21 20:08:00,
2013-01-21 15:09:00,82.5,71.3,29.93,WSW,248,0.0,4.0,69,0.00,,,0.00,Wunderground v.1.15,2013-01-21 20:09:00,
2013-01-21 15:10:00,82.6,71.0,29.92,WSW,248,1.0,2.0,68,0.00,,,0.00,Wunderground v.1.15,2013-01-21 20:10:00,
2013-01-21 15:11:00,82.9,71.3,29.93,WSW,248,0.0,2.0,68,0.00,,,0.00,Wunderground v.1.15,2013-01-21 20:11:00,
2013-01-21 15:13:00,82.9,71.3,29.92,WSW,248,0.0,2.0,68,0.00,,,0.00,Wunderground v.1.15,2013-01-21 20:13:00,
2013-01-21 15:14:00,82.9,70.8,29.92,WSW,248,0.0,2.0,67,0.00,,,0.00,Wunderground v.1.15,2013-01-21 20:14:00,
2013-01-21 15:15:00,82.9,70.8,29.92,WSW,248,0.0,2.0,67,0.00,,,0.00,Wunderground v.1.15,2013-01-21 20:15:00,
2013-01-21 15:16:00,82.7,69.7,29.92,WSW,249,0.0,2.0,65,0.00,,,0.00,Wunderground v.1.15,2013-01-21 20:16:00,
2013-01-21 15:18:00,82.3,70.2,29.92,WSW,249,0.0,2.0,67,0.00,,,0.00,Wunderground v.1.15,2013-01-21 20:18:00,
2013-01-21 15:20:00,82.0,69.5,29.92,WSW,249,0.0,0.0,66,0.00,,,0.00,Wunderground v.1.15,2013-01-21 20:20:00,
2013-01-21 15:23:00,81.0,69.4,29.92,WSW,249,0.0,0.0,68,0.00,,,0.00,Wunderground v.1.15,2013-01-21 20:23:00,
2013-01-21 15:25:00,80.7,70.0,29.92,WSW,249,0.0,0.0,70,0.00,,,0.00,Wunderground v.1.15,2013-01-21 20:25:00,
2013-01-21 15:29:00,80.1,69.4,29.92,WSW,249,0.0,1.0,70,0.00,,,0.00,Wunderground v.1.15,2013-01-21 20:29:00,
2013-01-21 15:30:00,80.0,69.3,29.92,WSW,249,0.0,0.0,70,0.00,,,0.00,Wunderground v.1.15,2013-01-21 20:30:00,
2013-01-21 15:34:00,79.6,68.1,29.92,WSW,241,0.0,0.0,68,0.00,,,0.00,Wunderground v.1.15,2013-01-21 20:34:00,
2013-01-21 15:35:00,79.6,68.1,29.92,WSW,241,0.0,0.0,68,0.00,,,0.00,Wunderground v.1.15,2013-01-21 20:35:00,
2013-01-21 15:36:00,79.4,67.9,29.92,WSW,241,0.0,0.0,68,0.00,,,0.00,Wunderground v.1.15,2013-01-21 20:36:00,
2013-01-21 15:39:00,79.2,69.4,29.92,SW,226,0.0,0.0,72,0.00,,,0.00,Wunderground v.1.15,2013-01-21 20:39:00,
2013-01-21 15:40:00,79.2,69.4,29.92,SW,226,0.0,0.0,72,0.00,,,0.00,Wunderground v.1.15,2013-01-21 20:40:00,
2013-01-21 15:42:00,79.1,70.1,29.92,SSE,161,0.0,5.0,74,0.00,,,0.00,Wunderground v.1.15,2013-01-21 20:42:00,
2013-01-21 15:44:00,78.7,70.5,29.92,SE,144,1.0,6.0,76,0.00,,,0.00,Wunderground v.1.15,2013-01-21 20:44:00,
2013-01-21 15:45:00,78.7,70.5,29.92,SE,139,4.0,6.0,76,0.00,,,0.00,Wunderground v.1.15,2013-01-21 20:45:00,
2013-01-21 15:47:00,78.4,70.6,29.93,SE,146,1.0,6.0,77,0.00,,,0.00,Wunderground v.1.15,2013-01-21 20:47:00,
2013-01-21 15:49:00,78.2,70.0,29.93,SSW,207,4.0,4.0,76,0.00,,,0.00,Wunderground v.1.15,2013-01-21 20:49:00,
2013-01-21 15:50:00,78.1,69.9,29.93,South,190,1.0,4.0,76,0.00,,,0.00,Wunderground v.1.15,2013-01-21 20:50:00,
2013-01-21 15:52:00,77.9,70.1,29.93,SSE,165,5.0,6.0,77,0.00,,,0.00,Wunderground v.1.15,2013-01-21 20:52:00,
2013-01-21 15:55:00,77.6,69.8,29.93,South,174,4.0,9.0,77,0.00,,,0.00,Wunderground v.1.15,2013-01-21 20:55:00,
2013-01-21 15:57:00,77.4,70.0,29.93,South,174,4.0,10.0,78,0.00,,,0.00,Wunderground v.1.15,2013-01-21 20:57:00,
2013-01-21 15:58:00,77.4,70.0,29.93,South,175,8.0,10.0,78,0.00,,,0.00,Wunderground v.1.15,2013-01-21 20:58:00,
2013-01-21 16:01:00,77.1,70.1,29.93,SSE,157,0.0,5.0,79,0.00,,,0.00,Wunderground v.1.15,2013-01-21 21:01:00,
2013-01-21 16:03:00,77.0,70.0,29.93,South,173,5.0,8.0,79,0.00,,,0.00,Wunderground v.1.15,2013-01-21 21:03:00,
2013-01-21 16:04:00,76.9,70.3,29.93,South,184,5.0,8.0,80,0.00,,,0.00,Wunderground v.1.15,2013-01-21 21:04:00,
2013-01-21 16:06:00,76.8,70.2,29.93,South,182,3.0,8.0,80,0.00,,,0.00,Wunderground v.1.15,2013-01-21 21:06:00,
2013-01-21 16:08:00,76.8,70.2,29.93,South,171,1.0,8.0,80,0.00,,,0.00,Wunderground v.1.15,2013-01-21 21:08:00,
2013-01-21 16:09:00,76.7,70.1,29.93,South,180,0.0,8.0,80,0.00,,,0.00,Wunderground v.1.15,2013-01-21 21:09:00,
2013-01-21 16:11:00,76.7,70.4,29.93,South,182,0.0,6.0,81,0.00,,,0.00,Wunderground v.1.15,2013-01-21 21:11:00,
2013-01-21 16:12:00,76.7,70.4,29.93,South,184,2.0,6.0,81,0.00,,,0.00,Wunderground v.1.15,2013-01-21 21:12:00,
2013-01-21 16:13:00,76.7,70.4,29.93,South,183,0.0,6.0,81,0.00,,,0.00,Wunderground v.1.15,2013-01-21 21:13:00,
2013-01-21 16:15:00,76.7,70.4,29.93,SSE,163,7.0,7.0,81,0.00,,,0.00,Wunderground v.1.15,2013-01-21 21:15:00,
2013-01-21 16:16:00,76.7,70.4,29.93,SSE,165,0.0,8.0,81,0.00,,,0.00,Wunderground v.1.15,2013-01-21 21:16:00,
2013-01-21 16:17:00,76.7,70.4,29.93,South,171,6.0,8.0,81,0.00,,,0.00,Wunderground v.1.15,2013-01-21 21:17:00,
2013-01-21 16:18:00,76.6,70.3,29.94,South,171,7.0,8.0,81,0.00,,,0.00,Wunderground v.1.15,2013-01-21 21:18:00,
2013-01-21 16:20:00,76.8,70.9,29.93,South,185,0.0,2.0,82,0.00,,,0.00,Wunderground v.1.15,2013-01-21 21:20:00,
2013-01-21 16:21:00,76.8,70.9,29.93,South,185,0.0,2.0,82,0.00,,,0.00,Wunderground v.1.15,2013-01-21 21:21:00,
2013-01-21 16:22:00,76.9,71.0,29.93,SSW,211,2.0,2.0,82,0.00,,,0.00,Wunderground v.1.15,2013-01-21 21:22:00,
2013-01-21 16:24:00,76.9,70.6,29.93,South,185,2.0,6.0,81,0.00,,,0.00,Wunderground v.1.15,2013-01-21 21:24:00,
2013-01-21 16:26:00,76.9,70.6,29.93,South,184,0.0,6.0,81,0.00,,,0.00,Wunderground v.1.15,2013-01-21 21:26:00,
2013-01-21 16:27:00,77.0,70.7,29.93,South,183,0.0,6.0,81,0.00,,,0.00,Wunderground v.1.15,2013-01-21 21:27:00,
2013-01-21 16:29:00,77.2,70.9,29.93,South,178,1.0,1.0,81,0.00,,,0.00,Wunderground v.1.15,2013-01-21 21:29:00,
2013-01-21 16:32:00,77.2,70.5,29.93,South,178,0.0,4.0,80,0.00,,,0.00,Wunderground v.1.15,2013-01-21 21:32:00,
2013-01-21 16:33:00,77.2,70.5,29.93,South,178,0.0,4.0,80,0.00,,,0.00,Wunderground v.1.15,2013-01-21 21:33:00,
2013-01-21 16:34:00,77.2,70.5,29.93,South,178,0.0,4.0,80,0.00,,,0.00,Wunderground v.1.15,2013-01-21 21:34:00,
2013-01-21 16:37:00,77.1,70.5,29.93,South,178,0.0,4.0,80,0.00,,,0.00,Wunderground v.1.15,2013-01-21 21:37:00,
2013-01-21 16:38:00,77.1,70.8,29.93,South,178,0.0,4.0,81,0.00,,,0.00,Wunderground v.1.15,2013-01-21 21:38:00,
2013-01-21 16:39:00,77.1,70.8,29.93,South,178,0.0,0.0,81,0.00,,,0.00,Wunderground v.1.15,2013-01-21 21:39:00,
2013-01-21 16:42:00,77.0,70.7,29.93,South,178,0.0,1.0,81,0.00,,,0.00,Wunderground v.1.15,2013-01-21 21:42:00,
2013-01-21 16:43:00,77.0,70.7,29.93,South,178,0.0,1.0,81,0.00,,,0.00,Wunderground v.1.15,2013-01-21 21:43:00,
2013-01-21 16:45:00,76.9,70.6,29.93,South,178,0.0,1.0,81,0.00,,,0.00,Wunderground v.1.15,2013-01-21 21:45:00,
2013-01-21 16:47:00,76.8,70.9,29.93,South,178,0.0,1.0,82,0.00,,,0.00,Wunderground v.1.15,2013-01-21 21:47:00,
2013-01-21 16:48:00,76.8,70.9,29.93,South,178,0.0,1.0,82,0.00,,,0.00,Wunderground v.1.15,2013-01-21 21:48:00,
2013-01-21 16:50:00,76.7,70.8,29.93,South,178,0.0,2.0,82,0.00,,,0.00,Wunderground v.1.15,2013-01-21 21:50:00,
2013-01-21 16:53:00,76.7,70.8,29.94,South,178,0.0,2.0,82,0.00,,,0.00,Wunderground v.1.15,2013-01-21 21:53:00,
2013-01-21 16:54:00,76.6,70.7,29.93,South,178,0.0,2.0,82,0.00,,,0.00,Wunderground v.1.15,2013-01-21 21:54:00,
2013-01-21 16:55:00,76.6,70.7,29.94,South,178,0.0,2.0,82,0.00,,,0.00,Wunderground v.1.15,2013-01-21 21:55:00,
2013-01-21 16:56:00,76.6,70.7,29.94,South,178,0.0,2.0,82,0.00,,,0.00,Wunderground v.1.15,2013-01-21 21:56:00,
2013-01-21 16:59:00,76.6,70.7,29.93,South,178,0.0,2.0,82,0.00,,,0.00,Wunderground v.1.15,2013-01-21 21:59:00,
2013-01-21 17:01:00,76.6,70.7,29.93,South,178,0.0,0.0,82,0.00,,,0.00,Wunderground v.1.15,2013-01-21 22:01:00,
2013-01-21 17:04:00,76.6,70.7,29.93,South,178,0.0,0.0,82,0.00,,,0.00,Wunderground v.1.15,2013-01-21 22:04:00,
2013-01-21 17:05:00,76.6,70.7,29.93,South,178,0.0,0.0,82,0.00,,,0.00,Wunderground v.1.15,2013-01-21 22:05:00,
2013-01-21 17:07:00,76.6,70.7,29.93,South,178,0.0,0.0,82,0.00,,,0.00,Wunderground v.1.15,2013-01-21 22:07:00,
2013-01-21 17:09:00,76.6,70.7,29.94,South,178,0.0,0.0,82,0.00,,,0.00,Wunderground v.1.15,2013-01-21 22:09:00,
2013-01-21 17:11:00,76.6,70.7,29.94,South,178,0.0,0.0,82,0.00,,,0.00,Wunderground v.1.15,2013-01-21 22:11:00,
2013-01-21 17:12:00,76.7,70.8,29.94,South,178,0.0,0.0,82,0.00,,,0.00,Wunderground v.1.15,2013-01-21 22:12:00,
2013-01-21 17:14:00,76.7,70.8,29.94,South,178,0.0,0.0,82,0.00,,,0.00,Wunderground v.1.15,2013-01-21 22:14:00,
2013-01-21 17:16:00,76.7,70.8,29.94,South,178,0.0,0.0,82,0.00,,,0.00,Wunderground v.1.15,2013-01-21 22:16:00,
2013-01-21 17:17:00,76.7,70.8,29.94,South,178,0.0,1.0,82,0.00,,,0.00,Wunderground v.1.15,2013-01-21 22:17:00,
2013-01-21 17:20:00,76.7,70.8,29.94,South,178,0.0,0.0,82,0.00,,,0.00,Wunderground v.1.15,2013-01-21 22:20:00,
2013-01-21 17:21:00,76.7,70.8,29.94,South,178,0.0,0.0,82,0.00,,,0.00,Wunderground v.1.15,2013-01-21 22:21:00,
2013-01-21 17:23:00,76.6,70.7,29.94,South,178,0.0,0.0,82,0.00,,,0.00,Wunderground v.1.15,2013-01-21 22:23:00,
2013-01-21 17:25:00,76.7,70.8,29.94,South,178,0.0,0.0,82,0.00,,,0.00,Wunderground v.1.15,2013-01-21 22:25:00,
2013-01-21 17:27:00,76.6,70.7,29.94,South,178,0.0,0.0,82,0.00,,,0.00,Wunderground v.1.15,2013-01-21 22:27:00,
2013-01-21 17:29:00,76.6,70.7,29.94,South,178,0.0,0.0,82,0.00,,,0.00,Wunderground v.1.15,2013-01-21 22:29:00,
2013-01-21 17:30:00,76.6,70.7,29.94,South,178,0.0,0.0,82,0.00,,,0.00,Wunderground v.1.15,2013-01-21 22:30:00,
2013-01-21 17:32:00,76.5,70.2,29.94,South,178,0.0,1.0,81,0.00,,,0.00,Wunderground v.1.15,2013-01-21 22:32:00,
2013-01-21 17:34:00,76.5,69.9,29.94,South,178,0.0,1.0,80,0.00,,,0.00,Wunderground v.1.15,2013-01-21 22:34:00,
2013-01-21 17:36:00,76.6,69.6,29.94,SSW,205,0.0,4.0,79,0.00,,,0.00,Wunderground v.1.15,2013-01-21 22:36:00,
2013-01-21 17:38:00,76.7,70.1,29.94,SSW,205,0.0,4.0,80,0.00,,,0.00,Wunderground v.1.15,2013-01-21 22:38:00,
2013-01-21 17:39:00,76.7,69.7,29.94,SSW,208,0.0,0.0,79,0.00,,,0.00,Wunderground v.1.15,2013-01-21 22:39:00,
2013-01-21 17:40:00,76.7,69.7,29.94,SSW,208,0.0,1.0,79,0.00,,,0.00,Wunderground v.1.15,2013-01-21 22:40:00,
2013-01-21 17:41:00,76.6,69.2,29.95,SSW,208,0.0,1.0,78,0.00,,,0.00,Wunderground v.1.15,2013-01-21 22:41:00,
2013-01-21 17:43:00,76.6,68.5,29.94,SW,231,0.0,3.0,76,0.00,,,0.00,Wunderground v.1.15,2013-01-21 22:43:00,
2013-01-21 17:44:00,76.6,68.1,29.95,SW,231,0.0,3.0,75,0.00,,,0.00,Wunderground v.1.15,2013-01-21 22:44:00,
2013-01-21 17:45:00,76.6,68.1,29.95,SW,232,0.0,3.0,75,0.00,,,0.00,Wunderground v.1.15,2013-01-21 22:45:00,
2013-01-21 17:46:00,76.5,68.0,29.95,SW,232,0.0,3.0,75,0.00,,,0.00,Wunderground v.1.15,2013-01-21 22:46:00,
2013-01-21 17:48:00,76.5,68.0,29.95,SW,232,1.0,3.0,75,0.00,,,0.00,Wunderground v.1.15,2013-01-21 22:48:00,
2013-01-21 17:49:00,76.4,67.9,29.95,SW,233,1.0,1.0,75,0.00,,,0.00,Wunderground v.1.15,2013-01-21 22:49:00,
2013-01-21 17:51:00,76.3,67.8,29.95,SW,233,0.0,1.0,75,0.00,,,0.00,Wunderground v.1.15,2013-01-21 22:51:00,
2013-01-21 17:54:00,76.1,67.6,29.95,SW,234,0.0,1.0,75,0.00,,,0.00,Wunderground v.1.15,2013-01-21 22:54:00,
2013-01-21 17:56:00,76.0,67.5,29.95,West,261,6.0,6.0,75,0.00,,,0.00,Wunderground v.1.15,2013-01-21 22:56:00,
2013-01-21 17:57:00,76.0,67.5,29.95,West,263,1.0,6.0,75,0.00,,,0.00,Wunderground v.1.15,2013-01-21 22:57:00,
2013-01-21 17:59:00,75.9,67.4,29.96,WSW,250,0.0,6.0,75,0.00,,,0.00,Wunderground v.1.15,2013-01-21 22:59:00,
2013-01-21 18:01:00,75.8,67.3,29.95,WSW,244,0.0,6.0,75,0.00,,,0.00,Wunderground v.1.15,2013-01-21 23:01:00,
2013-01-21 18:02:00,75.8,67.3,29.96,WSW,244,3.0,6.0,75,0.00,,,0.00,Wunderground v.1.15,2013-01-21 23:02:00,
2013-01-21 18:04:00,75.7,67.2,29.96,WSW,257,0.0,6.0,75,0.00,,,0.00,Wunderground v.1.15,2013-01-21 23:04:00,
2013-01-21 18:06:00,75.7,67.2,29.96,WSW,258,0.0,6.0,75,0.00,,,0.00,Wunderground v.1.15,2013-01-21 23:06:00,
2013-01-21 18:07:00,75.7,67.6,29.96,WSW,252,2.0,6.0,76,0.00,,,0.00,Wunderground v.1.15,2013-01-21 23:07:00,
2013-01-21 18:09:00,75.5,67.4,29.96,WSW,257,0.0,6.0,76,0.00,,,0.00,Wunderground v.1.15,2013-01-21 23:09:00,
2013-01-21 18:11:00,75.4,67.3,29.95,WSW,252,5.0,5.0,76,0.00,,,0.00,Wunderground v.1.15,2013-01-21 23:11:00,
2013-01-21 18:12:00,75.3,67.2,29.96,WSW,239,3.0,5.0,76,0.00,,,0.00,Wunderground v.1.15,2013-01-21 23:12:00,
2013-01-21 18:14:00,75.2,67.1,29.96,WSW,244,0.0,5.0,76,0.00,,,0.00,Wunderground v.1.15,2013-01-21 23:14:00,
2013-01-21 18:16:00,75.1,67.0,29.95,WSW,245,1.0,5.0,76,0.00,,,0.00,Wunderground v.1.15,2013-01-21 23:16:00,
2013-01-21 18:17:00,75.1,67.4,29.96,WSW,247,5.0,5.0,77,0.00,,,0.00,Wunderground v.1.15,2013-01-21 23:17:00,
2013-01-21 18:19:00,75.0,67.3,29.96,WSW,247,1.0,1.0,77,0.00,,,0.00,Wunderground v.1.15,2013-01-21 23:19:00,
2013-01-21 18:21:00,74.9,67.2,29.96,WSW,248,0.0,3.0,77,0.00,,,0.00,Wunderground v.1.15,2013-01-21 23:21:00,
2013-01-21 18:22:00,74.8,67.1,29.96,WSW,248,0.0,3.0,77,0.00,,,0.00,Wunderground v.1.15,2013-01-21 23:22:00,
2013-01-21 18:23:00,74.8,67.1,29.96,WSW,248,0.0,3.0,77,0.00,,,0.00,Wunderground v.1.15,2013-01-21 23:23:00,
2013-01-21 18:25:00,74.7,67.0,29.96,WSW,248,0.0,3.0,77,0.00,,,0.00,Wunderground v.1.15,2013-01-21 23:25:00,
2013-01-21 18:26:00,74.6,67.3,29.96,WSW,248,0.0,3.0,78,0.00,,,0.00,Wunderground v.1.15,2013-01-21 23:26:00,
2013-01-21 18:27:00,74.5,67.2,29.96,WSW,248,0.0,3.0,78,0.00,,,0.00,Wunderground v.1.15,2013-01-21 23:27:00,
2013-01-21 18:28:00,74.5,67.2,29.96,WSW,248,0.0,3.0,78,0.00,,,0.00,Wunderground v.1.15,2013-01-21 23:28:00,
2013-01-21 18:30:00,74.4,67.1,29.96,WSW,248,0.0,0.0,78,0.00,,,0.00,Wunderground v.1.15,2013-01-21 23:30:00,
2013-01-21 18:31:00,74.3,67.0,29.96,WSW,248,0.0,0.0,78,0.00,,,0.00,Wunderground v.1.15,2013-01-21 23:31:00,
2013-01-21 18:33:00,74.2,67.3,29.97,WSW,248,0.0,0.0,79,0.00,,,0.00,Wunderground v.1.15,2013-01-21 23:33:00,
2013-01-21 18:35:00,74.1,67.2,29.97,WSW,248,0.0,0.0,79,0.00,,,0.00,Wunderground v.1.15,2013-01-21 23:35:00,
2013-01-21 18:37:00,74.0,67.1,29.97,WSW,248,0.0,0.0,79,0.00,,,0.00,Wunderground v.1.15,2013-01-21 23:37:00,
2013-01-21 18:38:00,74.0,67.1,29.97,WSW,248,0.0,0.0,79,0.00,,,0.00,Wunderground v.1.15,2013-01-21 23:38:00,
2013-01-21 18:40:00,74.0,67.4,29.97,WSW,248,0.0,0.0,80,0.00,,,0.00,Wunderground v.1.15,2013-01-21 23:40:00,
2013-01-21 18:41:00,73.9,67.3,29.97,WSW,248,0.0,0.0,80,0.00,,,0.00,Wunderground v.1.15,2013-01-21 23:41:00,
2013-01-21 18:42:00,73.8,67.2,29.97,WSW,248,0.0,0.0,80,0.00,,,0.00,Wunderground v.1.15,2013-01-21 23:42:00,
2013-01-21 18:44:00,73.8,67.2,29.97,WSW,248,0.0,0.0,80,0.00,,,0.00,Wunderground v.1.15,2013-01-21 23:44:00,
2013-01-21 18:46:00,73.7,67.1,29.97,WSW,248,0.0,0.0,80,0.00,,,0.00,Wunderground v.1.15,2013-01-21 23:46:00,
2013-01-21 18:48:00,73.7,67.1,29.97,WSW,248,0.0,0.0,80,0.00,,,0.00,Wunderground v.1.15,2013-01-21 23:48:00,
2013-01-21 18:49:00,73.6,67.0,29.97,WSW,248,0.0,0.0,80,0.00,,,0.00,Wunderground v.1.15,2013-01-21 23:49:00,
2013-01-21 18:51:00,73.6,67.0,29.97,WSW,248,0.0,0.0,80,0.00,,,0.00,Wunderground v.1.15,2013-01-21 23:51:00,
2013-01-21 18:52:00,73.6,67.0,29.97,WSW,248,0.0,0.0,80,0.00,,,0.00,Wunderground v.1.15,2013-01-21 23:52:00,
2013-01-21 18:53:00,73.6,67.0,29.97,WSW,248,0.0,0.0,80,0.00,,,0.00,Wunderground v.1.15,2013-01-21 23:53:00,
2013-01-21 18:54:00,73.6,67.4,29.97,WSW,248,0.0,0.0,81,0.00,,,0.00,Wunderground v.1.15,2013-01-21 23:54:00,
2013-01-21 18:56:00,73.5,67.3,29.97,WSW,248,0.0,0.0,81,0.00,,,0.00,Wunderground v.1.15,2013-01-21 23:56:00,
2013-01-21 18:57:00,73.5,67.3,29.97,WSW,248,0.0,0.0,81,0.00,,,0.00,Wunderground v.1.15,2013-01-21 23:57:00,
2013-01-21 18:58:00,73.5,67.3,29.97,WSW,248,0.0,0.0,81,0.00,,,0.00,Wunderground v.1.15,2013-01-21 23:58:00,
2013-01-21 19:00:00,73.5,67.3,29.97,WSW,248,0.0,0.0,81,0.00,,,0.00,Wunderground v.1.15,2013-01-22 00:00:00,
2013-01-21 19:02:00,73.5,67.3,29.97,WSW,248,0.0,0.0,81,0.00,,,0.00,Wunderground v.1.15,2013-01-22 00:02:00,
2013-01-21 19:03:00,73.5,67.3,29.97,WSW,248,0.0,0.0,81,0.00,,,0.00,Wunderground v.1.15,2013-01-22 00:03:00,
2013-01-21 19:05:00,73.4,67.2,29.97,WSW,248,0.0,0.0,81,0.00,,,0.00,Wunderground v.1.15,2013-01-22 00:05:00,
2013-01-21 19:07:00,73.4,67.2,29.97,WSW,248,0.0,0.0,81,0.00,,,0.00,Wunderground v.1.15,2013-01-22 00:07:00,
2013-01-21 19:09:00,73.4,67.2,29.98,WSW,248,0.0,0.0,81,0.00,,,0.00,Wunderground v.1.15,2013-01-22 00:09:00,
2013-01-21 19:10:00,73.4,67.2,29.98,WSW,248,0.0,0.0,81,0.00,,,0.00,Wunderground v.1.15,2013-01-22 00:10:00,
2013-01-21 19:13:00,73.4,67.6,29.98,WSW,248,0.0,0.0,82,0.00,,,0.00,Wunderground v.1.15,2013-01-22 00:13:00,
2013-01-21 19:14:00,73.4,67.6,29.98,WSW,248,0.0,0.0,82,0.00,,,0.00,Wunderground v.1.15,2013-01-22 00:14:00,
2013-01-21 19:16:00,73.4,67.6,29.98,WSW,248,0.0,0.0,82,0.00,,,0.00,Wunderground v.1.15,2013-01-22 00:16:00,
2013-01-21 19:18:00,73.4,67.6,29.98,WSW,248,0.0,0.0,82,0.00,,,0.00,Wunderground v.1.15,2013-01-22 00:18:00,
2013-01-21 19:19:00,73.4,67.6,29.98,WSW,248,0.0,0.0,82,0.00,,,0.00,Wunderground v.1.15,2013-01-22 00:19:00,
2013-01-21 19:22:00,73.4,67.2,29.98,WSW,248,0.0,0.0,81,0.00,,,0.00,Wunderground v.1.15,2013-01-22 00:22:00,
2013-01-21 19:23:00,73.4,67.2,29.98,WSW,248,0.0,0.0,81,0.00,,,0.00,Wunderground v.1.15,2013-01-22 00:23:00,
2013-01-21 19:24:00,73.4,67.2,29.98,WSW,248,0.0,0.0,81,0.00,,,0.00,Wunderground v.1.15,2013-01-22 00:24:00,
2013-01-21 19:28:00,73.4,67.2,29.98,WSW,245,0.0,0.0,81,0.00,,,0.00,Wunderground v.1.15,2013-01-22 00:28:00,
2013-01-21 19:29:00,73.4,67.2,29.98,WSW,247,0.0,0.0,81,0.00,,,0.00,Wunderground v.1.15,2013-01-22 00:29:00,
2013-01-21 19:30:00,73.4,67.2,29.98,WSW,251,0.0,0.0,81,0.00,,,0.00,Wunderground v.1.15,2013-01-22 00:30:00,
2013-01-21 19:31:00,73.3,66.8,29.98,WSW,251,0.0,0.0,80,0.00,,,0.00,Wunderground v.1.15,2013-01-22 00:31:00,
2013-01-21 19:33:00,73.3,66.8,29.98,WNW,289,0.0,0.0,80,0.00,,,0.00,Wunderground v.1.15,2013-01-22 00:33:00,
2013-01-21 19:34:00,73.3,66.8,29.98,WNW,289,0.0,0.0,80,0.00,,,0.00,Wunderground v.1.15,2013-01-22 00:34:00,
2013-01-21 19:35:00,73.3,66.8,29.98,WNW,289,0.0,0.0,80,0.00,,,0.00,Wunderground v.1.15,2013-01-22 00:35:00,
2013-01-21 19:36:00,73.3,66.8,29.98,WNW,289,0.0,0.0,80,0.00,,,0.00,Wunderground v.1.15,2013-01-22 00:36:00,
2013-01-21 19:38:00,73.2,66.7,29.98,WNW,289,0.0,0.0,80,0.00,,,0.00,Wunderground v.1.15,2013-01-22 00:38:00,
2013-01-21 19:40:00,73.2,66.7,29.98,NW,309,0.0,0.0,80,0.00,,,0.00,Wunderground v.1.15,2013-01-22 00:40:00,
2013-01-21 19:41:00,73.2,66.7,29.98,WNW,290,0.0,0.0,80,0.00,,,0.00,Wunderground v.1.15,2013-01-22 00:41:00,
2013-01-21 19:44:00,73.1,66.6,29.98,WNW,290,0.0,0.0,80,0.00,,,0.00,Wunderground v.1.15,2013-01-22 00:44:00,
2013-01-21 19:45:00,73.1,66.6,29.98,WNW,290,0.0,0.0,80,0.00,,,0.00,Wunderground v.1.15,2013-01-22 00:45:00,
2013-01-21 19:46:00,73.0,66.5,29.98,WNW,290,0.0,0.0,80,0.00,,,0.00,Wunderground v.1.15,2013-01-22 00:46:00,
2013-01-21 19:47:00,73.0,66.5,29.98,WNW,290,0.0,0.0,80,0.00,,,0.00,Wunderground v.1.15,2013-01-22 00:47:00,
2013-01-21 19:49:00,72.9,66.4,29.98,WNW,290,0.0,0.0,80,0.00,,,0.00,Wunderground v.1.15,2013-01-22 00:49:00,
2013-01-21 19:50:00,72.9,66.4,29.98,WNW,290,0.0,0.0,80,0.00,,,0.00,Wunderground v.1.15,2013-01-22 00:50:00,
2013-01-21 19:51:00,72.9,66.4,29.98,WNW,290,0.0,0.0,80,0.00,,,0.00,Wunderground v.1.15,2013-01-22 00:51:00,
2013-01-21 19:52:00,72.9,66.4,29.98,WNW,290,0.0,0.0,80,0.00,,,0.00,Wunderground v.1.15,2013-01-22 00:52:00,
2013-01-21 19:54:00,72.8,66.6,29.98,WNW,290,0.0,0.0,81,0.00,,,0.00,Wunderground v.1.15,2013-01-22 00:54:00,
2013-01-21 19:55:00,72.8,66.3,29.98,WNW,290,0.0,0.0,80,0.00,,,0.00,Wunderground v.1.15,2013-01-22 00:55:00,
2013-01-21 19:57:00,72.8,66.6,29.98,WNW,290,0.0,0.0,81,0.00,,,0.00,Wunderground v.1.15,2013-01-22 00:57:00,
2013-01-21 19:59:00,72.7,66.5,29.98,WNW,290,0.0,0.0,81,0.00,,,0.00,Wunderground v.1.15,2013-01-22 00:59:00,
2013-01-21 20:00:00,72.7,66.5,29.98,WNW,290,0.0,0.0,81,0.00,,,0.00,Wunderground v.1.15,2013-01-22 01:00:00,
2013-01-21 20:01:00,72.7,66.5,29.98,WNW,290,0.0,0.0,81,0.00,,,0.00,Wunderground v.1.15,2013-01-22 01:01:00,
2013-01-21 20:02:00,72.6,66.4,29.98,WNW,290,0.0,0.0,81,0.00,,,0.00,Wunderground v.1.15,2013-01-22 01:02:00,
2013-01-21 20:05:00,72.6,66.4,29.98,WNW,290,0.0,0.0,81,0.00,,,0.00,Wunderground v.1.15,2013-01-22 01:05:00,
2013-01-21 20:06:00,72.5,66.3,29.98,WNW,288,0.0,0.0,81,0.00,,,0.00,Wunderground v.1.15,2013-01-22 01:06:00,
2013-01-21 20:07:00,72.5,66.3,29.98,WNW,288,0.0,0.0,81,0.00,,,0.00,Wunderground v.1.15,2013-01-22 01:07:00,
2013-01-21 20:08:00,72.5,66.3,29.98,WNW,288,0.0,0.0,81,0.00,,,0.00,Wunderground v.1.15,2013-01-22 01:08:00,
2013-01-21 20:10:00,72.4,66.2,29.98,WNW,288,0.0,0.0,81,0.00,,,0.00,Wunderground v.1.15,2013-01-22 01:10:00,
2013-01-21 20:11:00,72.4,66.2,29.98,WNW,288,0.0,0.0,81,0.00,,,0.00,Wunderground v.1.15,2013-01-22 01:11:00,
2013-01-21 20:12:00,72.4,66.2,29.98,WNW,288,0.0,0.0,81,0.00,,,0.00,Wunderground v.1.15,2013-01-22 01:12:00,
2013-01-21 20:13:00,72.3,66.1,29.98,WNW,288,0.0,0.0,81,0.00,,,0.00,Wunderground v.1.15,2013-01-22 01:13:00,
2013-01-21 20:15:00,72.3,66.5,29.99,WNW,288,0.0,0.0,82,0.00,,,0.00,Wunderground v.1.15,2013-01-22 01:15:00,
2013-01-21 20:17:00,72.3,66.5,29.99,WNW,288,0.0,0.0,82,0.00,,,0.00,Wunderground v.1.15,2013-01-22 01:17:00,
2013-01-21 20:18:00,72.3,66.5,29.99,WNW,288,0.0,0.0,82,0.00,,,0.00,Wunderground v.1.15,2013-01-22 01:18:00,
2013-01-21 20:19:00,72.3,66.5,29.99,WNW,288,0.0,0.0,82,0.00,,,0.00,Wunderground v.1.15,2013-01-22 01:19:00,
2013-01-21 20:21:00,72.2,66.4,29.99,WNW,288,0.0,0.0,82,0.00,,,0.00,Wunderground v.1.15,2013-01-22 01:21:00,
2013-01-21 20:22:00,72.2,66.4,29.99,WNW,291,0.0,0.0,82,0.00,,,0.00,Wunderground v.1.15,2013-01-22 01:22:00,
2013-01-21 20:23:00,72.2,66.4,29.99,WNW,290,0.0,0.0,82,0.00,,,0.00,Wunderground v.1.15,2013-01-22 01:23:00,
2013-01-21 20:24:00,72.2,66.4,29.99,WNW,290,0.0,0.0,82,0.00,,,0.00,Wunderground v.1.15,2013-01-22 01:24:00,
2013-01-21 20:26:00,72.2,66.4,29.99,WNW,297,0.0,0.0,82,0.00,,,0.00,Wunderground v.1.15,2013-01-22 01:26:00,
2013-01-21 20:27:00,72.2,66.4,29.99,WNW,301,0.0,0.0,82,0.00,,,0.00,Wunderground v.1.15,2013-01-22 01:27:00,
2013-01-21 20:28:00,72.2,66.4,29.99,WNW,293,0.0,0.0,82,0.00,,,0.00,Wunderground v.1.15,2013-01-22 01:28:00,
2013-01-21 20:29:00,72.2,66.4,29.99,WNW,303,0.0,0.0,82,0.00,,,0.00,Wunderground v.1.15,2013-01-22 01:29:00,
2013-01-21 20:32:00,72.1,66.3,29.99,NW,317,0.0,0.0,82,0.00,,,0.00,Wunderground v.1.15,2013-01-22 01:32:00,
2013-01-21 20:33:00,72.0,66.2,29.99,NW,315,0.0,0.0,82,0.00,,,0.00,Wunderground v.1.15,2013-01-22 01:33:00,
2013-01-21 20:34:00,71.9,66.1,29.99,NW,321,0.0,0.0,82,0.00,,,0.00,Wunderground v.1.15,2013-01-22 01:34:00,
2013-01-21 20:37:00,71.7,66.3,29.99,NW,313,0.0,0.0,83,0.00,,,0.00,Wunderground v.1.15,2013-01-22 01:37:00,
2013-01-21 20:38:00,71.7,66.3,29.99,NW,313,0.0,0.0,83,0.00,,,0.00,Wunderground v.1.15,2013-01-22 01:38:00,
2013-01-21 20:39:00,71.6,66.2,29.99,NW,315,0.0,0.0,83,0.00,,,0.00,Wunderground v.1.15,2013-01-22 01:39:00,
2013-01-21 20:42:00,71.3,65.9,29.99,NW,318,0.0,0.0,83,0.00,,,0.00,Wunderground v.1.15,2013-01-22 01:42:00,
2013-01-21 20:43:00,71.3,65.9,29.99,NW,318,0.0,0.0,83,0.00,,,0.00,Wunderground v.1.15,2013-01-22 01:43:00,
2013-01-21 20:44:00,71.2,65.8,29.99,West,277,0.0,0.0,83,0.00,,,0.00,Wunderground v.1.15,2013-01-22 01:44:00,
2013-01-21 20:45:00,71.2,66.1,29.99,West,279,0.0,0.0,84,0.00,,,0.00,Wunderground v.1.15,2013-01-22 01:45:00,
2013-01-21 20:48:00,71.0,65.9,30.00,WNW,302,0.0,0.0,84,0.00,,,0.00,Wunderground v.1.15,2013-01-22 01:48:00,
2013-01-21 20:49:00,71.0,65.9,30.00,NW,304,0.0,0.0,84,0.00,,,0.00,Wunderground v.1.15,2013-01-22 01:49:00,
2013-01-21 20:51:00,70.8,65.7,29.99,NW,304,0.0,0.0,84,0.00,,,0.00,Wunderground v.1.15,2013-01-22 01:51:00,
2013-01-21 20:53:00,70.7,66.0,30.00,WNW,292,0.0,0.0,85,0.00,,,0.00,Wunderground v.1.15,2013-01-22 01:53:00,
2013-01-21 20:55:00,70.6,65.9,30.00,NW,310,0.0,0.0,85,0.00,,,0.00,Wunderground v.1.15,2013-01-22 01:55:00,
2013-01-21 20:56:00,70.6,65.9,30.00,NW,323,0.0,0.0,85,0.00,,,0.00,Wunderground v.1.15,2013-01-22 01:56:00,
2013-01-21 20:58:00,70.5,65.8,29.99,WNW,291,0.0,0.0,85,0.00,,,0.00,Wunderground v.1.15,2013-01-22 01:58:00,
2013-01-21 21:00:00,70.4,65.7,29.99,WNW,290,0.0,0.0,85,0.00,,,0.00,Wunderground v.1.15,2013-01-22 02:00:00,
2013-01-21 21:02:00,70.3,65.9,29.99,NW,316,0.0,0.0,86,0.00,,,0.00,Wunderground v.1.15,2013-01-22 02:02:00,
2013-01-21 21:04:00,70.3,65.9,29.99,NW,321,0.0,0.0,86,0.00,,,0.00,Wunderground v.1.15,2013-01-22 02:04:00,
2013-01-21 21:05:00,70.2,65.8,29.99,NW,312,0.0,0.0,86,0.00,,,0.00,Wunderground v.1.15,2013-01-22 02:05:00,
2013-01-21 21:08:00,70.1,65.7,30.00,NW,325,0.0,0.0,86,0.00,,,0.00,Wunderground v.1.15,2013-01-22 02:08:00,
2013-01-21 21:09:00,70.1,65.7,29.99,NW,318,0.0,0.0,86,0.00,,,0.00,Wunderground v.1.15,2013-01-22 02:09:00,
2013-01-21 21:10:00,70.1,66.0,29.99,NW,321,0.0,0.0,87,0.00,,,0.00,Wunderground v.1.15,2013-01-22 02:10:00,
2013-01-21 21:13:00,70.1,66.0,29.99,NW,321,0.0,0.0,87,0.00,,,0.00,Wunderground v.1.15,2013-01-22 02:13:00,
2013-01-21 21:15:00,70.1,66.0,29.99,NW,321,0.0,0.0,87,0.00,,,0.00,Wunderground v.1.15,2013-01-22 02:15:00,
2013-01-21 21:17:00,70.1,66.0,29.99,NW,321,0.0,0.0,87,0.00,,,0.00,Wunderground v.1.15,2013-01-22 02:17:00,
2013-01-21 21:18:00,70.1,66.0,29.99,NW,319,0.0,0.0,87,0.00,,,0.00,Wunderground v.1.15,2013-01-22 02:18:00,
2013-01-21 21:20:00,70.1,66.0,29.99,NW,321,0.0,0.0,87,0.00,,,0.00,Wunderground v.1.15,2013-01-22 02:20:00,
2013-01-21 21:22:00,70.2,66.1,29.99,NW,325,0.0,0.0,87,0.00,,,0.00,Wunderground v.1.15,2013-01-22 02:22:00,
2013-01-21 21:23:00,70.1,66.0,29.99,NW,325,0.0,0.0,87,0.00,,,0.00,Wunderground v.1.15,2013-01-22 02:23:00,
2013-01-21 21:25:00,70.1,66.0,29.99,NW,323,0.0,0.0,87,0.00,,,0.00,Wunderground v.1.15,2013-01-22 02:25:00,
2013-01-21 21:27:00,70.1,66.0,30.00,NW,324,0.0,0.0,87,0.00,,,0.00,Wunderground v.1.15,2013-01-22 02:27:00,
2013-01-21 21:29:00,70.0,66.0,29.99,NW,324,0.0,0.0,87,0.00,,,0.00,Wunderground v.1.15,2013-01-22 02:29:00,
2013-01-21 21:30:00,69.9,65.9,29.99,NW,324,0.0,0.0,87,0.00,,,0.00,Wunderground v.1.15,2013-01-22 02:30:00,
2013-01-21 21:32:00,69.8,65.8,30.00,NW,322,0.0,0.0,87,0.00,,,0.00,Wunderground v.1.15,2013-01-22 02:32:00,
2013-01-21 21:34:00,69.7,65.7,30.00,NW,314,0.0,0.0,87,0.00,,,0.00,Wunderground v.1.15,2013-01-22 02:34:00,
2013-01-21 21:35:00,69.6,65.6,30.00,NW,314,0.0,0.0,87,0.00,,,0.00,Wunderground v.1.15,2013-01-22 02:35:00,
2013-01-21 21:38:00,69.4,65.4,30.00,NW,314,0.0,0.0,87,0.00,,,0.00,Wunderground v.1.15,2013-01-22 02:38:00,
2013-01-21 21:39:00,69.3,65.3,30.00,NW,315,0.0,0.0,87,0.00,,,0.00,Wunderground v.1.15,2013-01-22 02:39:00,
2013-01-21 21:40:00,69.3,65.6,30.00,NW,315,0.0,0.0,88,0.00,,,0.00,Wunderground v.1.15,2013-01-22 02:40:00,
2013-01-21 21:41:00,69.2,65.5,30.00,NW,315,0.0,0.0,88,0.00,,,0.00,Wunderground v.1.15,2013-01-22 02:41:00,
2013-01-21 21:44:00,69.1,65.4,30.00,NW,315,0.0,0.0,88,0.00,,,0.00,Wunderground v.1.15,2013-01-22 02:44:00,
2013-01-21 21:46:00,69.0,65.3,30.00,NW,315,0.0,0.0,88,0.00,,,0.00,Wunderground v.1.15,2013-01-22 02:46:00,
2013-01-21 21:47:00,68.9,65.2,30.00,NW,315,0.0,0.0,88,0.00,,,0.00,Wunderground v.1.15,2013-01-22 02:47:00,
2013-01-21 21:49:00,68.9,65.2,30.00,NW,315,0.0,0.0,88,0.00,,,0.00,Wunderground v.1.15,2013-01-22 02:49:00,
2013-01-21 21:50:00,68.9,65.2,30.00,NW,315,0.0,0.0,88,0.00,,,0.00,Wunderground v.1.15,2013-01-22 02:50:00,
2013-01-21 21:51:00,68.8,65.4,30.00,NW,315,0.0,0.0,89,0.00,,,0.00,Wunderground v.1.15,2013-01-22 02:51:00,
2013-01-21 21:52:00,68.8,65.4,30.00,NW,315,0.0,0.0,89,0.00,,,0.00,Wunderground v.1.15,2013-01-22 02:52:00,
2013-01-21 21:54:00,68.7,65.3,30.00,NW,315,0.0,0.0,89,0.00,,,0.00,Wunderground v.1.15,2013-01-22 02:54:00,
2013-01-21 21:55:00,68.7,65.3,30.00,NW,315,0.0,0.0,89,0.00,,,0.00,Wunderground v.1.15,2013-01-22 02:55:00,
2013-01-21 21:57:00,68.6,65.2,30.00,NW,315,0.0,0.0,89,0.00,,,0.00,Wunderground v.1.15,2013-01-22 02:57:00,
2013-01-21 21:58:00,68.6,65.2,30.00,NW,315,0.0,0.0,89,0.00,,,0.00,Wunderground v.1.15,2013-01-22 02:58:00,
2013-01-21 21:59:00,68.6,65.2,30.00,NW,315,0.0,0.0,89,0.00,,,0.00,Wunderground v.1.15,2013-01-22 02:59:00,
2013-01-21 22:01:00,68.5,65.1,30.00,NW,315,0.0,0.0,89,0.00,,,0.00,Wunderground v.1.15,2013-01-22 03:01:00,
2013-01-21 22:03:00,68.5,65.1,30.00,NW,314,0.0,0.0,89,0.00,,,0.00,Wunderground v.1.15,2013-01-22 03:03:00,
2013-01-21 22:04:00,68.4,65.0,30.00,NW,313,0.0,0.0,89,0.00,,,0.00,Wunderground v.1.15,2013-01-22 03:04:00,
2013-01-21 22:06:00,68.4,65.0,30.01,NW,313,0.0,0.0,89,0.00,,,0.00,Wunderground v.1.15,2013-01-22 03:06:00,
2013-01-21 22:08:00,68.3,65.3,30.01,NW,314,0.0,0.0,90,0.00,,,0.00,Wunderground v.1.15,2013-01-22 03:08:00,
2013-01-21 22:09:00,68.3,65.3,30.01,NW,315,0.0,0.0,90,0.00,,,0.00,Wunderground v.1.15,2013-01-22 03:09:00,
2013-01-21 22:11:00,68.2,65.2,30.01,NW,315,0.0,0.0,90,0.00,,,0.00,Wunderground v.1.15,2013-01-22 03:11:00,
2013-01-21 22:13:00,68.1,65.1,30.01,NW,315,0.0,0.0,90,0.00,,,0.00,Wunderground v.1.15,2013-01-22 03:13:00,
2013-01-21 22:14:00,68.1,65.1,30.00,NW,315,0.0,0.0,90,0.00,,,0.00,Wunderground v.1.15,2013-01-22 03:14:00,
2013-01-21 22:15:00,68.1,65.1,30.00,NW,315,0.0,0.0,90,0.00,,,0.00,Wunderground v.1.15,2013-01-22 03:15:00,
2013-01-21 22:16:00,68.1,65.1,30.00,NW,315,0.0,0.0,90,0.00,,,0.00,Wunderground v.1.15,2013-01-22 03:16:00,
2013-01-21 22:18:00,68.0,65.0,30.01,NW,315,0.0,0.0,90,0.00,,,0.00,Wunderground v.1.15,2013-01-22 03:18:00,
2013-01-21 22:19:00,67.9,64.9,30.01,NW,315,0.0,0.0,90,0.00,,,0.00,Wunderground v.1.15,2013-01-22 03:19:00,
2013-01-21 22:21:00,67.9,64.9,30.01,NW,315,0.0,0.0,90,0.00,,,0.00,Wunderground v.1.15,2013-01-22 03:21:00,
2013-01-21 22:22:00,67.8,64.8,30.01,NW,315,0.0,0.0,90,0.00,,,0.00,Wunderground v.1.15,2013-01-22 03:22:00,
2013-01-21 22:23:00,67.7,64.7,30.01,NW,315,0.0,0.0,90,0.00,,,0.00,Wunderground v.1.15,2013-01-22 03:23:00,
2013-01-21 22:25:00,67.6,64.9,30.01,NW,315,0.0,0.0,91,0.00,,,0.00,Wunderground v.1.15,2013-01-22 03:25:00,
2013-01-21 22:26:00,67.6,64.6,30.01,NW,315,0.0,0.0,90,0.00,,,0.00,Wunderground v.1.15,2013-01-22 03:26:00,
2013-01-21 22:27:00,67.5,64.5,30.01,NW,315,0.0,0.0,90,0.00,,,0.00,Wunderground v.1.15,2013-01-22 03:27:00,
2013-01-21 22:29:00,67.4,64.7,30.01,NW,315,0.0,0.0,91,0.00,,,0.00,Wunderground v.1.15,2013-01-22 03:29:00,
2013-01-21 22:31:00,67.4,64.7,30.00,NW,315,0.0,0.0,91,0.00,,,0.00,Wunderground v.1.15,2013-01-22 03:31:00,
2013-01-21 22:32:00,67.4,64.7,30.00,NW,315,0.0,0.0,91,0.00,,,0.00,Wunderground v.1.15,2013-01-22 03:32:00,
2013-01-21 22:34:00,67.4,64.7,30.00,NW,315,0.0,0.0,91,0.00,,,0.00,Wunderground v.1.15,2013-01-22 03:34:00,
2013-01-21 22:36:00,67.3,64.6,30.00,NW,315,0.0,0.0,91,0.00,,,0.00,Wunderground v.1.15,2013-01-22 03:36:00,
2013-01-21 22:37:00,67.3,64.9,30.01,NW,315,0.0,0.0,92,0.00,,,0.00,Wunderground v.1.15,2013-01-22 03:37:00,
2013-01-21 22:40:00,67.3,64.9,30.01,NW,315,0.0,0.0,92,0.00,,,0.00,Wunderground v.1.15,2013-01-22 03:40:00,
2013-01-21 22:41:00,67.3,64.9,30.01,NW,315,0.0,0.0,92,0.00,,,0.00,Wunderground v.1.15,2013-01-22 03:41:00,
2013-01-21 22:42:00,67.3,64.9,30.01,NW,315,0.0,0.0,92,0.00,,,0.00,Wunderground v.1.15,2013-01-22 03:42:00,
2013-01-21 22:44:00,67.2,64.8,30.01,NW,316,0.0,0.0,92,0.00,,,0.00,Wunderground v.1.15,2013-01-22 03:44:00,
2013-01-21 22:45:00,67.2,64.8,30.01,NW,316,0.0,0.0,92,0.00,,,0.00,Wunderground v.1.15,2013-01-22 03:45:00,
2013-01-21 22:47:00,67.2,64.8,30.01,NW,316,0.0,0.0,92,0.00,,,0.00,Wunderground v.1.15,2013-01-22 03:47:00,
2013-01-21 22:49:00,67.2,64.8,30.01,NW,316,0.0,0.0,92,0.00,,,0.00,Wunderground v.1.15,2013-01-22 03:49:00,
2013-01-21 22:50:00,67.2,64.8,30.01,NW,316,0.0,0.0,92,0.00,,,0.00,Wunderground v.1.15,2013-01-22 03:50:00,
2013-01-21 22:52:00,67.2,64.8,30.01,NW,316,0.0,0.0,92,0.00,,,0.00,Wunderground v.1.15,2013-01-22 03:52:00,
2013-01-21 22:55:00,67.1,64.7,30.01,NW,315,0.0,0.0,92,0.00,,,0.00,Wunderground v.1.15,2013-01-22 03:55:00,
2013-01-21 22:57:00,67.1,64.7,30.01,NW,315,0.0,0.0,92,0.00,,,0.00,Wunderground v.1.15,2013-01-22 03:57:00,
2013-01-21 22:58:00,67.1,64.7,30.01,NW,315,0.0,0.0,92,0.00,,,0.00,Wunderground v.1.15,2013-01-22 03:58:00,
2013-01-21 23:00:00,67.1,64.7,30.01,NW,315,0.0,0.0,92,0.00,,,0.00,Wunderground v.1.15,2013-01-22 04:00:00,
2013-01-21 23:01:00,67.0,64.6,30.01,NW,315,0.0,0.0,92,0.00,,,0.00,Wunderground v.1.15,2013-01-22 04:01:00,
2013-01-21 23:03:00,67.0,64.6,30.01,NW,315,0.0,0.0,92,0.00,,,0.00,Wunderground v.1.15,2013-01-22 04:03:00,
2013-01-21 23:05:00,67.0,64.6,30.01,NW,315,0.0,0.0,92,0.00,,,0.00,Wunderground v.1.15,2013-01-22 04:05:00,
2013-01-21 23:06:00,66.9,64.5,30.01,NW,315,0.0,0.0,92,0.00,,,0.00,Wunderground v.1.15,2013-01-22 04:06:00,
2013-01-21 23:08:00,66.9,64.5,30.01,NW,314,0.0,0.0,92,0.00,,,0.00,Wunderground v.1.15,2013-01-22 04:08:00,
2013-01-21 23:09:00,66.8,64.7,30.01,NW,314,0.0,0.0,93,0.00,,,0.00,Wunderground v.1.15,2013-01-22 04:09:00,
2013-01-21 23:10:00,66.8,64.7,30.01,NW,315,0.0,0.0,93,0.00,,,0.00,Wunderground v.1.15,2013-01-22 04:10:00,
2013-01-21 23:12:00,66.8,64.7,30.01,NW,319,0.0,0.0,93,0.00,,,0.00,Wunderground v.1.15,2013-01-22 04:12:00,
2013-01-21 23:13:00,66.8,64.7,30.01,NW,319,0.0,0.0,93,0.00,,,0.00,Wunderground v.1.15,2013-01-22 04:13:00,
2013-01-21 23:15:00,66.8,64.7,30.01,NW,319,0.0,0.0,93,0.00,,,0.00,Wunderground v.1.15,2013-01-22 04:15:00,
2013-01-21 23:17:00,66.8,64.7,30.01,NW,318,0.0,0.0,93,0.00,,,0.00,Wunderground v.1.15,2013-01-22 04:17:00,
2013-01-21 23:19:00,66.8,64.7,30.01,NW,318,0.0,0.0,93,0.00,,,0.00,Wunderground v.1.15,2013-01-22 04:19:00,
2013-01-21 23:20:00,66.7,64.6,30.01,NW,318,0.0,0.0,93,0.00,,,0.00,Wunderground v.1.15,2013-01-22 04:20:00,
2013-01-21 23:22:00,66.7,64.6,30.01,NW,318,0.0,0.0,93,0.00,,,0.00,Wunderground v.1.15,2013-01-22 04:22:00,
2013-01-21 23:24:00,66.7,64.6,30.01,NW,319,0.0,0.0,93,0.00,,,0.00,Wunderground v.1.15,2013-01-22 04:24:00,
2013-01-21 23:25:00,66.7,64.6,30.01,NW,322,0.0,0.0,93,0.00,,,0.00,Wunderground v.1.15,2013-01-22 04:25:00,
2013-01-21 23:26:00,66.6,64.5,30.01,NW,322,0.0,0.0,93,0.00,,,0.00,Wunderground v.1.15,2013-01-22 04:26:00,
2013-01-21 23:27:00,66.6,64.5,30.00,NW,322,0.0,0.0,93,0.00,,,0.00,Wunderground v.1.15,2013-01-22 04:27:00,
2013-01-21 23:31:00,66.5,64.4,30.00,NW,322,0.0,0.0,93,0.00,,,0.00,Wunderground v.1.15,2013-01-22 04:31:00,
2013-01-21 23:32:00,66.5,64.4,30.00,NW,322,0.0,0.0,93,0.00,,,0.00,Wunderground v.1.15,2013-01-22 04:32:00,
2013-01-21 23:36:00,66.4,64.3,30.00,NW,317,0.0,0.0,93,0.00,,,0.00,Wunderground v.1.15,2013-01-22 04:36:00,
2013-01-21 23:38:00,66.4,64.3,30.00,NW,320,0.0,0.0,93,0.00,,,0.00,Wunderground v.1.15,2013-01-22 04:38:00,
2013-01-21 23:41:00,66.3,64.2,30.01,NW,321,0.0,0.0,93,0.00,,,0.00,Wunderground v.1.15,2013-01-22 04:41:00,
2013-01-21 23:43:00,66.3,64.2,30.01,NW,321,0.0,0.0,93,0.00,,,0.00,Wunderground v.1.15,2013-01-22 04:43:00,
2013-01-21 23:46:00,66.2,64.1,30.00,NW,321,0.0,0.0,93,0.00,,,0.00,Wunderground v.1.15,2013-01-22 04:46:00,
2013-01-21 23:48:00,66.2,64.1,30.00,NW,321,0.0,0.0,93,0.00,,,0.00,Wunderground v.1.15,2013-01-22 04:48:00,
2013-01-21 23:49:00,66.2,64.1,30.00,NW,321,0.0,0.0,93,0.00,,,0.00,Wunderground v.1.15,2013-01-22 04:49:00,
2013-01-21 23:53:00,66.1,64.3,30.00,NW,320,0.0,0.0,94,0.00,,,0.00,Wunderground v.1.15,2013-01-22 04:53:00,
2013-01-21 23:54:00,66.1,64.3,30.00,NW,320,0.0,0.0,94,0.00,,,0.00,Wunderground v.1.15,2013-01-22 04:54:00,
2013-01-21 23:58:00,65.9,64.1,30.00,NW,324,0.0,0.0,94,0.00,,,0.00,Wunderground v.1.15,2013-01-22 04:58:00,
2013-01-21 23:59:00,65.9,64.1,30.00,NW,324,0.0,0.0,94,0.00,,,0.00,Wunderground v.1.15,2013-01-22 04:59:00,